<?xml version="1.0" encoding="UTF-8" standalone="no" ?>
<gpx xmlns="http://www.topografix.com/GPX/1/1" xmlns:xsi="http://www.w3.org/2001/XMLSchema-instance" xsi:schemaLocation="http://www.topografix.com/GPX/1/1 http://www.topografix.com/GPX/1/1/gpx.xsd" version="1.1" creator="VisuGPX - https://www.visugpx.com">
  <metadata>
    <name>Dole rue Berthollet - Mont Roland</name>
    <desc><![CDATA[Randonnée effectuée le 11 octobre 2017
L'indice IBP d'effort est de 31, (suivant l'échelle de la FFRP) un score compris entre 26 et 50 correspond au niveau 2 qualifié de "ASSEZ FACILE". La randonnée pédestre présente peu de difficulté physique. Ce niveau correspond aux promenades et petites randonnées.
]]></desc>
  </metadata>
  <trk>
    <name><![CDATA[11 oct. 2017 à 09:06:26]]></name>
    <cmt><![CDATA[11 oct. 2017 à 09:06:26]]></cmt>
    <trkseg>
      <trkpt lat="47.11315" lon="5.4945">
        <ele>261</ele>
        <time>2017-10-11T07:06:27Z</time>
      </trkpt>
      <trkpt lat="47.1133" lon="5.49448">
        <ele>269</ele>
        <time>2017-10-11T07:06:30Z</time>
      </trkpt>
      <trkpt lat="47.11341" lon="5.49444">
        <ele>270</ele>
        <time>2017-10-11T07:06:33Z</time>
      </trkpt>
      <trkpt lat="47.11368" lon="5.49455">
        <ele>269</ele>
        <time>2017-10-11T07:06:34Z</time>
      </trkpt>
      <trkpt lat="47.11375" lon="5.49456">
        <ele>268</ele>
        <time>2017-10-11T07:06:38Z</time>
      </trkpt>
      <trkpt lat="47.11384" lon="5.49448">
        <ele>264</ele>
        <time>2017-10-11T07:06:48Z</time>
      </trkpt>
      <trkpt lat="47.11384" lon="5.49441">
        <ele>263</ele>
        <time>2017-10-11T07:06:52Z</time>
      </trkpt>
      <trkpt lat="47.11385" lon="5.49433">
        <ele>262</ele>
        <time>2017-10-11T07:06:56Z</time>
      </trkpt>
      <trkpt lat="47.11389" lon="5.49404">
        <ele>261</ele>
        <time>2017-10-11T07:07:13Z</time>
      </trkpt>
      <trkpt lat="47.11391" lon="5.49359">
        <ele>260</ele>
        <time>2017-10-11T07:07:37Z</time>
      </trkpt>
      <trkpt lat="47.11392" lon="5.49351">
        <ele>261</ele>
        <time>2017-10-11T07:07:41Z</time>
      </trkpt>
      <trkpt lat="47.11394" lon="5.49344">
        <ele>261</ele>
        <time>2017-10-11T07:07:48Z</time>
      </trkpt>
      <trkpt lat="47.11395" lon="5.49337">
        <ele>261</ele>
        <time>2017-10-11T07:07:52Z</time>
      </trkpt>
      <trkpt lat="47.11396" lon="5.49315">
        <ele>261</ele>
        <time>2017-10-11T07:08:04Z</time>
      </trkpt>
      <trkpt lat="47.11393" lon="5.49287">
        <ele>262</ele>
        <time>2017-10-11T07:08:20Z</time>
      </trkpt>
      <trkpt lat="47.11376" lon="5.49237">
        <ele>264</ele>
        <time>2017-10-11T07:08:51Z</time>
      </trkpt>
      <trkpt lat="47.11368" lon="5.49209">
        <ele>263</ele>
        <time>2017-10-11T07:09:07Z</time>
      </trkpt>
      <trkpt lat="47.11368" lon="5.49196">
        <ele>264</ele>
        <time>2017-10-11T07:09:15Z</time>
      </trkpt>
      <trkpt lat="47.11369" lon="5.49183">
        <ele>264</ele>
        <time>2017-10-11T07:09:22Z</time>
      </trkpt>
      <trkpt lat="47.11373" lon="5.49171">
        <ele>265</ele>
        <time>2017-10-11T07:09:29Z</time>
      </trkpt>
      <trkpt lat="47.11381" lon="5.49161">
        <ele>265</ele>
        <time>2017-10-11T07:09:37Z</time>
      </trkpt>
      <trkpt lat="47.11389" lon="5.49154">
        <ele>265</ele>
        <time>2017-10-11T07:09:45Z</time>
      </trkpt>
      <trkpt lat="47.11396" lon="5.49144">
        <ele>266</ele>
        <time>2017-10-11T07:09:55Z</time>
      </trkpt>
      <trkpt lat="47.114" lon="5.49132">
        <ele>267</ele>
        <time>2017-10-11T07:10:08Z</time>
      </trkpt>
      <trkpt lat="47.11401" lon="5.49118">
        <ele>267</ele>
        <time>2017-10-11T07:10:21Z</time>
      </trkpt>
      <trkpt lat="47.11401" lon="5.49103">
        <ele>267</ele>
        <time>2017-10-11T07:10:33Z</time>
      </trkpt>
      <trkpt lat="47.11397" lon="5.49082">
        <ele>270</ele>
        <time>2017-10-11T07:10:48Z</time>
      </trkpt>
      <trkpt lat="47.1139" lon="5.49072">
        <ele>271</ele>
        <time>2017-10-11T07:10:59Z</time>
      </trkpt>
      <trkpt lat="47.11386" lon="5.49068">
        <ele>271</ele>
        <time>2017-10-11T07:11:04Z</time>
      </trkpt>
      <trkpt lat="47.11378" lon="5.49059">
        <ele>272</ele>
        <time>2017-10-11T07:11:12Z</time>
      </trkpt>
      <trkpt lat="47.11373" lon="5.49056">
        <ele>272</ele>
        <time>2017-10-11T07:11:19Z</time>
      </trkpt>
      <trkpt lat="47.11369" lon="5.49049">
        <ele>273</ele>
        <time>2017-10-11T07:11:30Z</time>
      </trkpt>
      <trkpt lat="47.11365" lon="5.49046">
        <ele>273</ele>
        <time>2017-10-11T07:11:35Z</time>
      </trkpt>
      <trkpt lat="47.1136" lon="5.49042">
        <ele>273</ele>
        <time>2017-10-11T07:11:40Z</time>
      </trkpt>
      <trkpt lat="47.11357" lon="5.49038">
        <ele>274</ele>
        <time>2017-10-11T07:11:46Z</time>
      </trkpt>
      <trkpt lat="47.11349" lon="5.4903">
        <ele>275</ele>
        <time>2017-10-11T07:11:54Z</time>
      </trkpt>
      <trkpt lat="47.1134" lon="5.49021">
        <ele>274</ele>
        <time>2017-10-11T07:12:04Z</time>
      </trkpt>
      <trkpt lat="47.11324" lon="5.48995">
        <ele>276</ele>
        <time>2017-10-11T07:12:26Z</time>
      </trkpt>
      <trkpt lat="47.11322" lon="5.48987">
        <ele>277</ele>
        <time>2017-10-11T07:12:33Z</time>
      </trkpt>
      <trkpt lat="47.11329" lon="5.4897">
        <ele>278</ele>
        <time>2017-10-11T07:13:01Z</time>
      </trkpt>
      <trkpt lat="47.11332" lon="5.48957">
        <ele>278</ele>
        <time>2017-10-11T07:13:13Z</time>
      </trkpt>
      <trkpt lat="47.11335" lon="5.48951">
        <ele>278</ele>
        <time>2017-10-11T07:13:17Z</time>
      </trkpt>
      <trkpt lat="47.11337" lon="5.48943">
        <ele>279</ele>
        <time>2017-10-11T07:13:22Z</time>
      </trkpt>
      <trkpt lat="47.11336" lon="5.48928">
        <ele>279</ele>
        <time>2017-10-11T07:13:40Z</time>
      </trkpt>
      <trkpt lat="47.11336" lon="5.48921">
        <ele>278</ele>
        <time>2017-10-11T07:13:50Z</time>
      </trkpt>
      <trkpt lat="47.11336" lon="5.48908">
        <ele>279</ele>
        <time>2017-10-11T07:14:02Z</time>
      </trkpt>
      <trkpt lat="47.11331" lon="5.48852">
        <ele>279</ele>
        <time>2017-10-11T07:14:41Z</time>
      </trkpt>
      <trkpt lat="47.11331" lon="5.48824">
        <ele>281</ele>
        <time>2017-10-11T07:15:01Z</time>
      </trkpt>
      <trkpt lat="47.11335" lon="5.48798">
        <ele>282</ele>
        <time>2017-10-11T07:15:28Z</time>
      </trkpt>
      <trkpt lat="47.11335" lon="5.48787">
        <ele>282</ele>
        <time>2017-10-11T07:15:36Z</time>
      </trkpt>
      <trkpt lat="47.11336" lon="5.48773">
        <ele>284</ele>
        <time>2017-10-11T07:15:45Z</time>
      </trkpt>
      <trkpt lat="47.11338" lon="5.48767">
        <ele>288</ele>
        <time>2017-10-11T07:15:51Z</time>
      </trkpt>
      <trkpt lat="47.11348" lon="5.48747">
        <ele>294</ele>
        <time>2017-10-11T07:16:18Z</time>
      </trkpt>
      <trkpt lat="47.11353" lon="5.48736">
        <ele>292</ele>
        <time>2017-10-11T07:16:49Z</time>
      </trkpt>
      <trkpt lat="47.11355" lon="5.48729">
        <ele>293</ele>
        <time>2017-10-11T07:16:54Z</time>
      </trkpt>
      <trkpt lat="47.11355" lon="5.48722">
        <ele>293</ele>
        <time>2017-10-11T07:16:59Z</time>
      </trkpt>
      <trkpt lat="47.11348" lon="5.48696">
        <ele>295</ele>
        <time>2017-10-11T07:17:15Z</time>
      </trkpt>
      <trkpt lat="47.11349" lon="5.48689">
        <ele>296</ele>
        <time>2017-10-11T07:17:18Z</time>
      </trkpt>
      <trkpt lat="47.11354" lon="5.48676">
        <ele>296</ele>
        <time>2017-10-11T07:17:26Z</time>
      </trkpt>
      <trkpt lat="47.11356" lon="5.48671">
        <ele>298</ele>
        <time>2017-10-11T07:17:32Z</time>
      </trkpt>
      <trkpt lat="47.11359" lon="5.48665">
        <ele>298</ele>
        <time>2017-10-11T07:17:37Z</time>
      </trkpt>
      <trkpt lat="47.11357" lon="5.48663">
        <ele>300</ele>
        <time>2017-10-11T07:18:26Z</time>
      </trkpt>
      <trkpt lat="47.11358" lon="5.48652">
        <ele>299</ele>
        <time>2017-10-11T07:19:17Z</time>
      </trkpt>
      <trkpt lat="47.1136" lon="5.48645">
        <ele>299</ele>
        <time>2017-10-11T07:19:22Z</time>
      </trkpt>
      <trkpt lat="47.1136" lon="5.48638">
        <ele>299</ele>
        <time>2017-10-11T07:19:26Z</time>
      </trkpt>
      <trkpt lat="47.11364" lon="5.48636">
        <ele>300</ele>
        <time>2017-10-11T07:19:31Z</time>
      </trkpt>
      <trkpt lat="47.1137" lon="5.48639">
        <ele>301</ele>
        <time>2017-10-11T07:19:35Z</time>
      </trkpt>
      <trkpt lat="47.11374" lon="5.48643">
        <ele>301</ele>
        <time>2017-10-11T07:19:39Z</time>
      </trkpt>
      <trkpt lat="47.11382" lon="5.48652">
        <ele>298</ele>
        <time>2017-10-11T07:19:49Z</time>
      </trkpt>
      <trkpt lat="47.11386" lon="5.48656">
        <ele>298</ele>
        <time>2017-10-11T07:19:53Z</time>
      </trkpt>
      <trkpt lat="47.11408" lon="5.48684">
        <ele>301</ele>
        <time>2017-10-11T07:20:21Z</time>
      </trkpt>
      <trkpt lat="47.11413" lon="5.48696">
        <ele>301</ele>
        <time>2017-10-11T07:20:29Z</time>
      </trkpt>
      <trkpt lat="47.11417" lon="5.487">
        <ele>301</ele>
        <time>2017-10-11T07:20:33Z</time>
      </trkpt>
      <trkpt lat="47.11421" lon="5.48704">
        <ele>301</ele>
        <time>2017-10-11T07:20:38Z</time>
      </trkpt>
      <trkpt lat="47.11444" lon="5.48719">
        <ele>299</ele>
        <time>2017-10-11T07:21:08Z</time>
      </trkpt>
      <trkpt lat="47.11453" lon="5.48724">
        <ele>299</ele>
        <time>2017-10-11T07:21:17Z</time>
      </trkpt>
      <trkpt lat="47.11457" lon="5.48728">
        <ele>298</ele>
        <time>2017-10-11T07:21:21Z</time>
      </trkpt>
      <trkpt lat="47.11461" lon="5.48732">
        <ele>298</ele>
        <time>2017-10-11T07:21:27Z</time>
      </trkpt>
      <trkpt lat="47.11466" lon="5.48731">
        <ele>298</ele>
        <time>2017-10-11T07:21:34Z</time>
      </trkpt>
      <trkpt lat="47.11467" lon="5.48725">
        <ele>299</ele>
        <time>2017-10-11T07:21:40Z</time>
      </trkpt>
      <trkpt lat="47.1147" lon="5.48711">
        <ele>299</ele>
        <time>2017-10-11T07:21:54Z</time>
      </trkpt>
      <trkpt lat="47.11471" lon="5.48696">
        <ele>300</ele>
        <time>2017-10-11T07:22:07Z</time>
      </trkpt>
      <trkpt lat="47.11474" lon="5.48689">
        <ele>301</ele>
        <time>2017-10-11T07:22:12Z</time>
      </trkpt>
      <trkpt lat="47.1148" lon="5.48679">
        <ele>302</ele>
        <time>2017-10-11T07:22:23Z</time>
      </trkpt>
      <trkpt lat="47.11489" lon="5.48675">
        <ele>304</ele>
        <time>2017-10-11T07:22:35Z</time>
      </trkpt>
      <trkpt lat="47.11488" lon="5.48669">
        <ele>305</ele>
        <time>2017-10-11T07:22:39Z</time>
      </trkpt>
      <trkpt lat="47.11492" lon="5.48663">
        <ele>306</ele>
        <time>2017-10-11T07:22:45Z</time>
      </trkpt>
      <trkpt lat="47.11497" lon="5.4866">
        <ele>306</ele>
        <time>2017-10-11T07:22:50Z</time>
      </trkpt>
      <trkpt lat="47.1151" lon="5.4865">
        <ele>307</ele>
        <time>2017-10-11T07:23:04Z</time>
      </trkpt>
      <trkpt lat="47.11515" lon="5.48648">
        <ele>307</ele>
        <time>2017-10-11T07:23:09Z</time>
      </trkpt>
      <trkpt lat="47.1152" lon="5.48643">
        <ele>307</ele>
        <time>2017-10-11T07:23:15Z</time>
      </trkpt>
      <trkpt lat="47.11523" lon="5.48638">
        <ele>308</ele>
        <time>2017-10-11T07:23:19Z</time>
      </trkpt>
      <trkpt lat="47.11529" lon="5.48637">
        <ele>309</ele>
        <time>2017-10-11T07:23:34Z</time>
      </trkpt>
      <trkpt lat="47.11531" lon="5.48643">
        <ele>310</ele>
        <time>2017-10-11T07:23:40Z</time>
      </trkpt>
      <trkpt lat="47.11536" lon="5.48641">
        <ele>311</ele>
        <time>2017-10-11T07:23:45Z</time>
      </trkpt>
      <trkpt lat="47.11541" lon="5.48643">
        <ele>311</ele>
        <time>2017-10-11T07:23:51Z</time>
      </trkpt>
      <trkpt lat="47.11545" lon="5.48639">
        <ele>311</ele>
        <time>2017-10-11T07:23:55Z</time>
      </trkpt>
      <trkpt lat="47.11548" lon="5.48634">
        <ele>311</ele>
        <time>2017-10-11T07:23:59Z</time>
      </trkpt>
      <trkpt lat="47.11556" lon="5.48615">
        <ele>311</ele>
        <time>2017-10-11T07:24:12Z</time>
      </trkpt>
      <trkpt lat="47.1156" lon="5.48597">
        <ele>314</ele>
        <time>2017-10-11T07:24:34Z</time>
      </trkpt>
      <trkpt lat="47.11557" lon="5.48591">
        <ele>314</ele>
        <time>2017-10-11T07:25:09Z</time>
      </trkpt>
      <trkpt lat="47.11562" lon="5.48589">
        <ele>314</ele>
        <time>2017-10-11T07:27:20Z</time>
      </trkpt>
      <trkpt lat="47.11572" lon="5.48591">
        <ele>315</ele>
        <time>2017-10-11T07:29:05Z</time>
      </trkpt>
      <trkpt lat="47.1159" lon="5.48597">
        <ele>318</ele>
        <time>2017-10-11T07:29:26Z</time>
      </trkpt>
      <trkpt lat="47.11608" lon="5.48608">
        <ele>318</ele>
        <time>2017-10-11T07:29:39Z</time>
      </trkpt>
      <trkpt lat="47.11624" lon="5.48622">
        <ele>318</ele>
        <time>2017-10-11T07:29:53Z</time>
      </trkpt>
      <trkpt lat="47.11651" lon="5.48637">
        <ele>319</ele>
        <time>2017-10-11T07:30:19Z</time>
      </trkpt>
      <trkpt lat="47.11684" lon="5.48667">
        <ele>319</ele>
        <time>2017-10-11T07:30:48Z</time>
      </trkpt>
      <trkpt lat="47.11693" lon="5.4867">
        <ele>319</ele>
        <time>2017-10-11T07:30:57Z</time>
      </trkpt>
      <trkpt lat="47.11718" lon="5.48689">
        <ele>319</ele>
        <time>2017-10-11T07:31:21Z</time>
      </trkpt>
      <trkpt lat="47.11754" lon="5.48707">
        <ele>313</ele>
        <time>2017-10-11T07:31:50Z</time>
      </trkpt>
      <trkpt lat="47.11762" lon="5.48715">
        <ele>312</ele>
        <time>2017-10-11T07:31:57Z</time>
      </trkpt>
      <trkpt lat="47.11782" lon="5.48724">
        <ele>311</ele>
        <time>2017-10-11T07:32:12Z</time>
      </trkpt>
      <trkpt lat="47.11791" lon="5.48731">
        <ele>311</ele>
        <time>2017-10-11T07:32:20Z</time>
      </trkpt>
      <trkpt lat="47.11803" lon="5.48735">
        <ele>309</ele>
        <time>2017-10-11T07:32:28Z</time>
      </trkpt>
      <trkpt lat="47.11817" lon="5.48741">
        <ele>309</ele>
        <time>2017-10-11T07:32:40Z</time>
      </trkpt>
      <trkpt lat="47.11832" lon="5.48743">
        <ele>307</ele>
        <time>2017-10-11T07:32:52Z</time>
      </trkpt>
      <trkpt lat="47.11852" lon="5.48745">
        <ele>307</ele>
        <time>2017-10-11T07:33:07Z</time>
      </trkpt>
      <trkpt lat="47.11888" lon="5.48745">
        <ele>304</ele>
        <time>2017-10-11T07:33:38Z</time>
      </trkpt>
      <trkpt lat="47.11894" lon="5.48747">
        <ele>304</ele>
        <time>2017-10-11T07:33:44Z</time>
      </trkpt>
      <trkpt lat="47.11924" lon="5.48751">
        <ele>306</ele>
        <time>2017-10-11T07:34:14Z</time>
      </trkpt>
      <trkpt lat="47.11929" lon="5.48752">
        <ele>307</ele>
        <time>2017-10-11T07:34:18Z</time>
      </trkpt>
      <trkpt lat="47.11953" lon="5.48758">
        <ele>309</ele>
        <time>2017-10-11T07:34:40Z</time>
      </trkpt>
      <trkpt lat="47.11963" lon="5.48764">
        <ele>310</ele>
        <time>2017-10-11T07:34:56Z</time>
      </trkpt>
      <trkpt lat="47.11968" lon="5.48766">
        <ele>311</ele>
        <time>2017-10-11T07:35:02Z</time>
      </trkpt>
      <trkpt lat="47.11992" lon="5.48767">
        <ele>313</ele>
        <time>2017-10-11T07:35:36Z</time>
      </trkpt>
      <trkpt lat="47.12031" lon="5.48771">
        <ele>318</ele>
        <time>2017-10-11T07:36:10Z</time>
      </trkpt>
      <trkpt lat="47.12046" lon="5.48772">
        <ele>318</ele>
        <time>2017-10-11T07:36:23Z</time>
      </trkpt>
      <trkpt lat="47.12057" lon="5.48774">
        <ele>318</ele>
        <time>2017-10-11T07:36:32Z</time>
      </trkpt>
      <trkpt lat="47.12072" lon="5.48772">
        <ele>319</ele>
        <time>2017-10-11T07:36:44Z</time>
      </trkpt>
      <trkpt lat="47.12078" lon="5.48773">
        <ele>319</ele>
        <time>2017-10-11T07:36:48Z</time>
      </trkpt>
      <trkpt lat="47.12083" lon="5.48773">
        <ele>319</ele>
        <time>2017-10-11T07:36:52Z</time>
      </trkpt>
      <trkpt lat="47.12093" lon="5.48773">
        <ele>319</ele>
        <time>2017-10-11T07:37:00Z</time>
      </trkpt>
      <trkpt lat="47.12103" lon="5.4877">
        <ele>320</ele>
        <time>2017-10-11T07:37:08Z</time>
      </trkpt>
      <trkpt lat="47.12108" lon="5.4877">
        <ele>320</ele>
        <time>2017-10-11T07:37:12Z</time>
      </trkpt>
      <trkpt lat="47.1214" lon="5.48767">
        <ele>321</ele>
        <time>2017-10-11T07:37:36Z</time>
      </trkpt>
      <trkpt lat="47.12155" lon="5.4876">
        <ele>321</ele>
        <time>2017-10-11T07:37:46Z</time>
      </trkpt>
      <trkpt lat="47.1216" lon="5.48758">
        <ele>321</ele>
        <time>2017-10-11T07:37:50Z</time>
      </trkpt>
      <trkpt lat="47.12164" lon="5.48759">
        <ele>321</ele>
        <time>2017-10-11T07:37:55Z</time>
      </trkpt>
      <trkpt lat="47.12169" lon="5.48762">
        <ele>321</ele>
        <time>2017-10-11T07:38:05Z</time>
      </trkpt>
      <trkpt lat="47.12174" lon="5.4876">
        <ele>321</ele>
        <time>2017-10-11T07:38:10Z</time>
      </trkpt>
      <trkpt lat="47.12182" lon="5.48758">
        <ele>321</ele>
        <time>2017-10-11T07:38:44Z</time>
      </trkpt>
      <trkpt lat="47.12186" lon="5.48754">
        <ele>321</ele>
        <time>2017-10-11T07:38:47Z</time>
      </trkpt>
      <trkpt lat="47.12195" lon="5.48752">
        <ele>320</ele>
        <time>2017-10-11T07:38:55Z</time>
      </trkpt>
      <trkpt lat="47.12199" lon="5.48752">
        <ele>320</ele>
        <time>2017-10-11T07:38:59Z</time>
      </trkpt>
      <trkpt lat="47.12205" lon="5.4875">
        <ele>319</ele>
        <time>2017-10-11T07:39:06Z</time>
      </trkpt>
      <trkpt lat="47.12214" lon="5.48747">
        <ele>320</ele>
        <time>2017-10-11T07:39:14Z</time>
      </trkpt>
      <trkpt lat="47.1224" lon="5.4875">
        <ele>319</ele>
        <time>2017-10-11T07:39:32Z</time>
      </trkpt>
      <trkpt lat="47.12274" lon="5.48783">
        <ele>318</ele>
        <time>2017-10-11T07:40:04Z</time>
      </trkpt>
      <trkpt lat="47.12284" lon="5.48789">
        <ele>317</ele>
        <time>2017-10-11T07:40:13Z</time>
      </trkpt>
      <trkpt lat="47.12288" lon="5.4879">
        <ele>317</ele>
        <time>2017-10-11T07:40:17Z</time>
      </trkpt>
      <trkpt lat="47.12296" lon="5.48799">
        <ele>317</ele>
        <time>2017-10-11T07:40:24Z</time>
      </trkpt>
      <trkpt lat="47.12305" lon="5.48816">
        <ele>316</ele>
        <time>2017-10-11T07:40:36Z</time>
      </trkpt>
      <trkpt lat="47.12307" lon="5.48822">
        <ele>316</ele>
        <time>2017-10-11T07:40:40Z</time>
      </trkpt>
      <trkpt lat="47.1231" lon="5.48828">
        <ele>316</ele>
        <time>2017-10-11T07:40:45Z</time>
      </trkpt>
      <trkpt lat="47.12314" lon="5.48832">
        <ele>315</ele>
        <time>2017-10-11T07:40:50Z</time>
      </trkpt>
      <trkpt lat="47.12315" lon="5.48839">
        <ele>314</ele>
        <time>2017-10-11T07:41:16Z</time>
      </trkpt>
      <trkpt lat="47.12313" lon="5.48846">
        <ele>314</ele>
        <time>2017-10-11T07:41:41Z</time>
      </trkpt>
      <trkpt lat="47.1231" lon="5.48851">
        <ele>314</ele>
        <time>2017-10-11T07:42:01Z</time>
      </trkpt>
      <trkpt lat="47.12312" lon="5.48859">
        <ele>309</ele>
        <time>2017-10-11T07:42:46Z</time>
      </trkpt>
      <trkpt lat="47.12321" lon="5.48863">
        <ele>309</ele>
        <time>2017-10-11T07:43:03Z</time>
      </trkpt>
      <trkpt lat="47.12333" lon="5.48855">
        <ele>309</ele>
        <time>2017-10-11T07:43:23Z</time>
      </trkpt>
      <trkpt lat="47.12342" lon="5.48855">
        <ele>311</ele>
        <time>2017-10-11T07:43:35Z</time>
      </trkpt>
      <trkpt lat="47.12346" lon="5.48843">
        <ele>315</ele>
        <time>2017-10-11T07:43:51Z</time>
      </trkpt>
      <trkpt lat="47.1235" lon="5.4883">
        <ele>316</ele>
        <time>2017-10-11T07:44:03Z</time>
      </trkpt>
      <trkpt lat="47.12352" lon="5.48817">
        <ele>319</ele>
        <time>2017-10-11T07:44:14Z</time>
      </trkpt>
      <trkpt lat="47.12356" lon="5.48805">
        <ele>319</ele>
        <time>2017-10-11T07:44:23Z</time>
      </trkpt>
      <trkpt lat="47.12373" lon="5.48772">
        <ele>324</ele>
        <time>2017-10-11T07:44:52Z</time>
      </trkpt>
      <trkpt lat="47.1238" lon="5.48762">
        <ele>324</ele>
        <time>2017-10-11T07:45:02Z</time>
      </trkpt>
      <trkpt lat="47.12402" lon="5.48715">
        <ele>326</ele>
        <time>2017-10-11T07:45:38Z</time>
      </trkpt>
      <trkpt lat="47.12407" lon="5.48703">
        <ele>327</ele>
        <time>2017-10-11T07:45:46Z</time>
      </trkpt>
      <trkpt lat="47.12414" lon="5.48693">
        <ele>326</ele>
        <time>2017-10-11T07:45:56Z</time>
      </trkpt>
      <trkpt lat="47.12423" lon="5.48686">
        <ele>326</ele>
        <time>2017-10-11T07:46:03Z</time>
      </trkpt>
      <trkpt lat="47.12428" lon="5.4867">
        <ele>326</ele>
        <time>2017-10-11T07:46:13Z</time>
      </trkpt>
      <trkpt lat="47.12428" lon="5.48656">
        <ele>326</ele>
        <time>2017-10-11T07:46:20Z</time>
      </trkpt>
      <trkpt lat="47.12433" lon="5.48644">
        <ele>327</ele>
        <time>2017-10-11T07:46:29Z</time>
      </trkpt>
      <trkpt lat="47.12436" lon="5.48631">
        <ele>326</ele>
        <time>2017-10-11T07:46:38Z</time>
      </trkpt>
      <trkpt lat="47.12444" lon="5.48623">
        <ele>325</ele>
        <time>2017-10-11T07:46:47Z</time>
      </trkpt>
      <trkpt lat="47.12452" lon="5.48597">
        <ele>324</ele>
        <time>2017-10-11T07:47:06Z</time>
      </trkpt>
      <trkpt lat="47.12473" lon="5.48571">
        <ele>324</ele>
        <time>2017-10-11T07:47:37Z</time>
      </trkpt>
      <trkpt lat="47.12477" lon="5.48558">
        <ele>323</ele>
        <time>2017-10-11T07:47:46Z</time>
      </trkpt>
      <trkpt lat="47.12478" lon="5.48544">
        <ele>323</ele>
        <time>2017-10-11T07:47:57Z</time>
      </trkpt>
      <trkpt lat="47.12482" lon="5.48516">
        <ele>322</ele>
        <time>2017-10-11T07:48:13Z</time>
      </trkpt>
      <trkpt lat="47.12491" lon="5.48492">
        <ele>320</ele>
        <time>2017-10-11T07:48:30Z</time>
      </trkpt>
      <trkpt lat="47.12499" lon="5.48483">
        <ele>319</ele>
        <time>2017-10-11T07:48:38Z</time>
      </trkpt>
      <trkpt lat="47.12504" lon="5.48471">
        <ele>318</ele>
        <time>2017-10-11T07:48:49Z</time>
      </trkpt>
      <trkpt lat="47.12516" lon="5.48448">
        <ele>318</ele>
        <time>2017-10-11T07:49:05Z</time>
      </trkpt>
      <trkpt lat="47.12521" lon="5.48437">
        <ele>319</ele>
        <time>2017-10-11T07:49:13Z</time>
      </trkpt>
      <trkpt lat="47.12524" lon="5.48424">
        <ele>319</ele>
        <time>2017-10-11T07:49:22Z</time>
      </trkpt>
      <trkpt lat="47.12527" lon="5.48411">
        <ele>318</ele>
        <time>2017-10-11T07:49:33Z</time>
      </trkpt>
      <trkpt lat="47.12528" lon="5.48397">
        <ele>317</ele>
        <time>2017-10-11T07:49:42Z</time>
      </trkpt>
      <trkpt lat="47.12541" lon="5.48346">
        <ele>315</ele>
        <time>2017-10-11T07:50:17Z</time>
      </trkpt>
      <trkpt lat="47.12545" lon="5.48291">
        <ele>311</ele>
        <time>2017-10-11T07:50:50Z</time>
      </trkpt>
      <trkpt lat="47.12551" lon="5.4828">
        <ele>310</ele>
        <time>2017-10-11T07:50:59Z</time>
      </trkpt>
      <trkpt lat="47.12557" lon="5.48252">
        <ele>309</ele>
        <time>2017-10-11T07:51:17Z</time>
      </trkpt>
      <trkpt lat="47.12565" lon="5.48242">
        <ele>309</ele>
        <time>2017-10-11T07:51:25Z</time>
      </trkpt>
      <trkpt lat="47.12569" lon="5.4823">
        <ele>307</ele>
        <time>2017-10-11T07:51:33Z</time>
      </trkpt>
      <trkpt lat="47.12575" lon="5.4822">
        <ele>306</ele>
        <time>2017-10-11T07:51:43Z</time>
      </trkpt>
      <trkpt lat="47.12569" lon="5.48208">
        <ele>304</ele>
        <time>2017-10-11T07:51:54Z</time>
      </trkpt>
      <trkpt lat="47.12561" lon="5.48201">
        <ele>303</ele>
        <time>2017-10-11T07:52:03Z</time>
      </trkpt>
      <trkpt lat="47.12553" lon="5.48194">
        <ele>303</ele>
        <time>2017-10-11T07:52:10Z</time>
      </trkpt>
      <trkpt lat="47.12543" lon="5.48193">
        <ele>303</ele>
        <time>2017-10-11T07:52:18Z</time>
      </trkpt>
      <trkpt lat="47.12534" lon="5.48191">
        <ele>302</ele>
        <time>2017-10-11T07:52:26Z</time>
      </trkpt>
      <trkpt lat="47.12525" lon="5.48185">
        <ele>302</ele>
        <time>2017-10-11T07:52:33Z</time>
      </trkpt>
      <trkpt lat="47.12501" lon="5.48184">
        <ele>299</ele>
        <time>2017-10-11T07:52:53Z</time>
      </trkpt>
      <trkpt lat="47.12496" lon="5.48182">
        <ele>299</ele>
        <time>2017-10-11T07:52:57Z</time>
      </trkpt>
      <trkpt lat="47.12491" lon="5.48182">
        <ele>299</ele>
        <time>2017-10-11T07:53:01Z</time>
      </trkpt>
      <trkpt lat="47.12466" lon="5.48171">
        <ele>297</ele>
        <time>2017-10-11T07:53:21Z</time>
      </trkpt>
      <trkpt lat="47.12446" lon="5.48169">
        <ele>295</ele>
        <time>2017-10-11T07:53:38Z</time>
      </trkpt>
      <trkpt lat="47.12431" lon="5.48163">
        <ele>294</ele>
        <time>2017-10-11T07:53:51Z</time>
      </trkpt>
      <trkpt lat="47.12427" lon="5.4816">
        <ele>294</ele>
        <time>2017-10-11T07:53:54Z</time>
      </trkpt>
      <trkpt lat="47.12406" lon="5.48154">
        <ele>294</ele>
        <time>2017-10-11T07:54:11Z</time>
      </trkpt>
      <trkpt lat="47.12401" lon="5.48153">
        <ele>294</ele>
        <time>2017-10-11T07:54:15Z</time>
      </trkpt>
      <trkpt lat="47.12396" lon="5.48152">
        <ele>293</ele>
        <time>2017-10-11T07:54:19Z</time>
      </trkpt>
      <trkpt lat="47.12391" lon="5.48153">
        <ele>293</ele>
        <time>2017-10-11T07:54:24Z</time>
      </trkpt>
      <trkpt lat="47.12387" lon="5.48152">
        <ele>293</ele>
        <time>2017-10-11T07:54:28Z</time>
      </trkpt>
      <trkpt lat="47.12367" lon="5.48138">
        <ele>291</ele>
        <time>2017-10-11T07:54:44Z</time>
      </trkpt>
      <trkpt lat="47.12356" lon="5.48136">
        <ele>289</ele>
        <time>2017-10-11T07:54:52Z</time>
      </trkpt>
      <trkpt lat="47.12352" lon="5.48136">
        <ele>288</ele>
        <time>2017-10-11T07:54:56Z</time>
      </trkpt>
      <trkpt lat="47.12341" lon="5.48137">
        <ele>288</ele>
        <time>2017-10-11T07:55:05Z</time>
      </trkpt>
      <trkpt lat="47.1232" lon="5.48133">
        <ele>285</ele>
        <time>2017-10-11T07:55:21Z</time>
      </trkpt>
      <trkpt lat="47.12315" lon="5.48133">
        <ele>285</ele>
        <time>2017-10-11T07:55:26Z</time>
      </trkpt>
      <trkpt lat="47.12277" lon="5.48131">
        <ele>283</ele>
        <time>2017-10-11T07:55:54Z</time>
      </trkpt>
      <trkpt lat="47.12268" lon="5.48134">
        <ele>283</ele>
        <time>2017-10-11T07:56:02Z</time>
      </trkpt>
      <trkpt lat="47.12263" lon="5.48137">
        <ele>283</ele>
        <time>2017-10-11T07:56:06Z</time>
      </trkpt>
      <trkpt lat="47.12252" lon="5.48141">
        <ele>283</ele>
        <time>2017-10-11T07:56:15Z</time>
      </trkpt>
      <trkpt lat="47.12244" lon="5.48148">
        <ele>282</ele>
        <time>2017-10-11T07:56:23Z</time>
      </trkpt>
      <trkpt lat="47.12234" lon="5.48151">
        <ele>282</ele>
        <time>2017-10-11T07:56:31Z</time>
      </trkpt>
      <trkpt lat="47.12229" lon="5.48152">
        <ele>282</ele>
        <time>2017-10-11T07:56:36Z</time>
      </trkpt>
      <trkpt lat="47.1222" lon="5.48149">
        <ele>282</ele>
        <time>2017-10-11T07:56:43Z</time>
      </trkpt>
      <trkpt lat="47.1221" lon="5.48145">
        <ele>282</ele>
        <time>2017-10-11T07:56:50Z</time>
      </trkpt>
      <trkpt lat="47.12192" lon="5.48132">
        <ele>282</ele>
        <time>2017-10-11T07:57:03Z</time>
      </trkpt>
      <trkpt lat="47.12183" lon="5.48125">
        <ele>283</ele>
        <time>2017-10-11T07:57:12Z</time>
      </trkpt>
      <trkpt lat="47.12175" lon="5.48118">
        <ele>285</ele>
        <time>2017-10-11T07:57:20Z</time>
      </trkpt>
      <trkpt lat="47.1217" lon="5.48111">
        <ele>285</ele>
        <time>2017-10-11T07:57:26Z</time>
      </trkpt>
      <trkpt lat="47.12165" lon="5.48105">
        <ele>285</ele>
        <time>2017-10-11T07:57:30Z</time>
      </trkpt>
      <trkpt lat="47.12157" lon="5.48096">
        <ele>286</ele>
        <time>2017-10-11T07:57:38Z</time>
      </trkpt>
      <trkpt lat="47.12138" lon="5.48085">
        <ele>284</ele>
        <time>2017-10-11T07:57:55Z</time>
      </trkpt>
      <trkpt lat="47.12113" lon="5.48074">
        <ele>282</ele>
        <time>2017-10-11T07:58:17Z</time>
      </trkpt>
      <trkpt lat="47.12099" lon="5.48066">
        <ele>281</ele>
        <time>2017-10-11T07:58:28Z</time>
      </trkpt>
      <trkpt lat="47.1209" lon="5.48061">
        <ele>281</ele>
        <time>2017-10-11T07:58:37Z</time>
      </trkpt>
      <trkpt lat="47.12085" lon="5.4806">
        <ele>281</ele>
        <time>2017-10-11T07:58:41Z</time>
      </trkpt>
      <trkpt lat="47.12066" lon="5.48055">
        <ele>281</ele>
        <time>2017-10-11T07:58:57Z</time>
      </trkpt>
      <trkpt lat="47.12061" lon="5.48052">
        <ele>281</ele>
        <time>2017-10-11T07:59:01Z</time>
      </trkpt>
      <trkpt lat="47.12059" lon="5.48046">
        <ele>282</ele>
        <time>2017-10-11T07:59:09Z</time>
      </trkpt>
      <trkpt lat="47.12051" lon="5.48047">
        <ele>283</ele>
        <time>2017-10-11T07:59:24Z</time>
      </trkpt>
      <trkpt lat="47.12046" lon="5.48044">
        <ele>283</ele>
        <time>2017-10-11T07:59:28Z</time>
      </trkpt>
      <trkpt lat="47.12041" lon="5.48041">
        <ele>282</ele>
        <time>2017-10-11T07:59:32Z</time>
      </trkpt>
      <trkpt lat="47.12009" lon="5.48029">
        <ele>279</ele>
        <time>2017-10-11T07:59:57Z</time>
      </trkpt>
      <trkpt lat="47.1199" lon="5.48013">
        <ele>278</ele>
        <time>2017-10-11T08:00:12Z</time>
      </trkpt>
      <trkpt lat="47.11987" lon="5.48006">
        <ele>278</ele>
        <time>2017-10-11T08:00:17Z</time>
      </trkpt>
      <trkpt lat="47.1198" lon="5.48002">
        <ele>277</ele>
        <time>2017-10-11T08:00:53Z</time>
      </trkpt>
      <trkpt lat="47.11975" lon="5.47999">
        <ele>278</ele>
        <time>2017-10-11T08:00:57Z</time>
      </trkpt>
      <trkpt lat="47.11966" lon="5.47992">
        <ele>278</ele>
        <time>2017-10-11T08:01:06Z</time>
      </trkpt>
      <trkpt lat="47.11961" lon="5.47989">
        <ele>278</ele>
        <time>2017-10-11T08:01:11Z</time>
      </trkpt>
      <trkpt lat="47.11956" lon="5.47986">
        <ele>277</ele>
        <time>2017-10-11T08:01:15Z</time>
      </trkpt>
      <trkpt lat="47.11916" lon="5.47963">
        <ele>279</ele>
        <time>2017-10-11T08:01:47Z</time>
      </trkpt>
      <trkpt lat="47.11911" lon="5.4796">
        <ele>279</ele>
        <time>2017-10-11T08:01:51Z</time>
      </trkpt>
      <trkpt lat="47.11886" lon="5.47951">
        <ele>277</ele>
        <time>2017-10-11T08:02:11Z</time>
      </trkpt>
      <trkpt lat="47.11881" lon="5.4795">
        <ele>278</ele>
        <time>2017-10-11T08:02:16Z</time>
      </trkpt>
      <trkpt lat="47.11877" lon="5.47948">
        <ele>278</ele>
        <time>2017-10-11T08:02:20Z</time>
      </trkpt>
      <trkpt lat="47.11845" lon="5.4794">
        <ele>276</ele>
        <time>2017-10-11T08:02:42Z</time>
      </trkpt>
      <trkpt lat="47.11835" lon="5.4794">
        <ele>276</ele>
        <time>2017-10-11T08:02:50Z</time>
      </trkpt>
      <trkpt lat="47.1183" lon="5.47941">
        <ele>277</ele>
        <time>2017-10-11T08:02:54Z</time>
      </trkpt>
      <trkpt lat="47.11825" lon="5.47941">
        <ele>277</ele>
        <time>2017-10-11T08:02:58Z</time>
      </trkpt>
      <trkpt lat="47.1181" lon="5.47938">
        <ele>276</ele>
        <time>2017-10-11T08:03:10Z</time>
      </trkpt>
      <trkpt lat="47.11802" lon="5.47931">
        <ele>276</ele>
        <time>2017-10-11T08:03:17Z</time>
      </trkpt>
      <trkpt lat="47.11796" lon="5.4793">
        <ele>276</ele>
        <time>2017-10-11T08:03:22Z</time>
      </trkpt>
      <trkpt lat="47.11792" lon="5.47927">
        <ele>276</ele>
        <time>2017-10-11T08:03:26Z</time>
      </trkpt>
      <trkpt lat="47.11781" lon="5.47923">
        <ele>276</ele>
        <time>2017-10-11T08:03:34Z</time>
      </trkpt>
      <trkpt lat="47.11776" lon="5.47921">
        <ele>276</ele>
        <time>2017-10-11T08:03:38Z</time>
      </trkpt>
      <trkpt lat="47.11772" lon="5.47917">
        <ele>276</ele>
        <time>2017-10-11T08:03:41Z</time>
      </trkpt>
      <trkpt lat="47.11767" lon="5.47913">
        <ele>276</ele>
        <time>2017-10-11T08:03:44Z</time>
      </trkpt>
      <trkpt lat="47.11761" lon="5.47914">
        <ele>277</ele>
        <time>2017-10-11T08:03:49Z</time>
      </trkpt>
      <trkpt lat="47.11757" lon="5.47913">
        <ele>277</ele>
        <time>2017-10-11T08:03:53Z</time>
      </trkpt>
      <trkpt lat="47.11752" lon="5.4791">
        <ele>277</ele>
        <time>2017-10-11T08:03:57Z</time>
      </trkpt>
      <trkpt lat="47.11747" lon="5.47908">
        <ele>277</ele>
        <time>2017-10-11T08:04:02Z</time>
      </trkpt>
      <trkpt lat="47.11742" lon="5.47905">
        <ele>277</ele>
        <time>2017-10-11T08:04:06Z</time>
      </trkpt>
      <trkpt lat="47.11736" lon="5.47903">
        <ele>276</ele>
        <time>2017-10-11T08:04:11Z</time>
      </trkpt>
      <trkpt lat="47.11732" lon="5.47899">
        <ele>275</ele>
        <time>2017-10-11T08:04:15Z</time>
      </trkpt>
      <trkpt lat="47.11726" lon="5.47895">
        <ele>275</ele>
        <time>2017-10-11T08:04:31Z</time>
      </trkpt>
      <trkpt lat="47.11753" lon="5.47876">
        <ele>277</ele>
        <time>2017-10-11T08:11:19Z</time>
      </trkpt>
      <trkpt lat="47.11783" lon="5.47852">
        <ele>271</ele>
        <time>2017-10-11T08:11:51Z</time>
      </trkpt>
      <trkpt lat="47.11787" lon="5.47848">
        <ele>271</ele>
        <time>2017-10-11T08:11:55Z</time>
      </trkpt>
      <trkpt lat="47.11792" lon="5.47846">
        <ele>271</ele>
        <time>2017-10-11T08:11:59Z</time>
      </trkpt>
      <trkpt lat="47.11806" lon="5.47839">
        <ele>270</ele>
        <time>2017-10-11T08:12:11Z</time>
      </trkpt>
      <trkpt lat="47.11811" lon="5.47836">
        <ele>270</ele>
        <time>2017-10-11T08:12:15Z</time>
      </trkpt>
      <trkpt lat="47.11816" lon="5.47833">
        <ele>270</ele>
        <time>2017-10-11T08:12:20Z</time>
      </trkpt>
      <trkpt lat="47.11826" lon="5.47828">
        <ele>270</ele>
        <time>2017-10-11T08:12:28Z</time>
      </trkpt>
      <trkpt lat="47.11831" lon="5.47825">
        <ele>269</ele>
        <time>2017-10-11T08:12:35Z</time>
      </trkpt>
      <trkpt lat="47.1184" lon="5.4782">
        <ele>269</ele>
        <time>2017-10-11T08:12:45Z</time>
      </trkpt>
      <trkpt lat="47.11845" lon="5.47818">
        <ele>269</ele>
        <time>2017-10-11T08:12:50Z</time>
      </trkpt>
      <trkpt lat="47.11855" lon="5.47813">
        <ele>268</ele>
        <time>2017-10-11T08:12:59Z</time>
      </trkpt>
      <trkpt lat="47.11865" lon="5.4781">
        <ele>269</ele>
        <time>2017-10-11T08:13:07Z</time>
      </trkpt>
      <trkpt lat="47.11869" lon="5.47808">
        <ele>269</ele>
        <time>2017-10-11T08:13:12Z</time>
      </trkpt>
      <trkpt lat="47.11879" lon="5.47802">
        <ele>270</ele>
        <time>2017-10-11T08:13:21Z</time>
      </trkpt>
      <trkpt lat="47.11884" lon="5.47798">
        <ele>270</ele>
        <time>2017-10-11T08:13:26Z</time>
      </trkpt>
      <trkpt lat="47.11892" lon="5.47789">
        <ele>270</ele>
        <time>2017-10-11T08:13:34Z</time>
      </trkpt>
      <trkpt lat="47.11896" lon="5.47784">
        <ele>270</ele>
        <time>2017-10-11T08:13:38Z</time>
      </trkpt>
      <trkpt lat="47.11908" lon="5.47769">
        <ele>269</ele>
        <time>2017-10-11T08:13:50Z</time>
      </trkpt>
      <trkpt lat="47.11913" lon="5.47766">
        <ele>268</ele>
        <time>2017-10-11T08:13:54Z</time>
      </trkpt>
      <trkpt lat="47.11931" lon="5.47742">
        <ele>267</ele>
        <time>2017-10-11T08:14:14Z</time>
      </trkpt>
      <trkpt lat="47.11934" lon="5.47737">
        <ele>267</ele>
        <time>2017-10-11T08:14:18Z</time>
      </trkpt>
      <trkpt lat="47.11941" lon="5.47727">
        <ele>267</ele>
        <time>2017-10-11T08:14:27Z</time>
      </trkpt>
      <trkpt lat="47.11944" lon="5.47722">
        <ele>267</ele>
        <time>2017-10-11T08:14:32Z</time>
      </trkpt>
      <trkpt lat="47.11949" lon="5.47719">
        <ele>267</ele>
        <time>2017-10-11T08:14:38Z</time>
      </trkpt>
      <trkpt lat="47.11954" lon="5.4772">
        <ele>266</ele>
        <time>2017-10-11T08:14:46Z</time>
      </trkpt>
      <trkpt lat="47.11957" lon="5.47712">
        <ele>266</ele>
        <time>2017-10-11T08:14:51Z</time>
      </trkpt>
      <trkpt lat="47.11968" lon="5.47697">
        <ele>267</ele>
        <time>2017-10-11T08:15:06Z</time>
      </trkpt>
      <trkpt lat="47.11977" lon="5.47692">
        <ele>267</ele>
        <time>2017-10-11T08:15:17Z</time>
      </trkpt>
      <trkpt lat="47.11982" lon="5.47691">
        <ele>267</ele>
        <time>2017-10-11T08:15:21Z</time>
      </trkpt>
      <trkpt lat="47.11987" lon="5.47691">
        <ele>267</ele>
        <time>2017-10-11T08:15:26Z</time>
      </trkpt>
      <trkpt lat="47.11997" lon="5.47694">
        <ele>267</ele>
        <time>2017-10-11T08:15:35Z</time>
      </trkpt>
      <trkpt lat="47.12001" lon="5.47691">
        <ele>267</ele>
        <time>2017-10-11T08:15:41Z</time>
      </trkpt>
      <trkpt lat="47.12031" lon="5.47693">
        <ele>267</ele>
        <time>2017-10-11T08:16:11Z</time>
      </trkpt>
      <trkpt lat="47.12061" lon="5.47692">
        <ele>272</ele>
        <time>2017-10-11T08:16:42Z</time>
      </trkpt>
      <trkpt lat="47.12081" lon="5.47691">
        <ele>276</ele>
        <time>2017-10-11T08:17:01Z</time>
      </trkpt>
      <trkpt lat="47.1209" lon="5.47693">
        <ele>276</ele>
        <time>2017-10-11T08:17:12Z</time>
      </trkpt>
      <trkpt lat="47.12099" lon="5.47693">
        <ele>279</ele>
        <time>2017-10-11T08:17:23Z</time>
      </trkpt>
      <trkpt lat="47.12109" lon="5.47697">
        <ele>280</ele>
        <time>2017-10-11T08:17:35Z</time>
      </trkpt>
      <trkpt lat="47.12118" lon="5.47694">
        <ele>280</ele>
        <time>2017-10-11T08:17:53Z</time>
      </trkpt>
      <trkpt lat="47.12128" lon="5.47691">
        <ele>280</ele>
        <time>2017-10-11T08:18:05Z</time>
      </trkpt>
      <trkpt lat="47.12147" lon="5.47691">
        <ele>285</ele>
        <time>2017-10-11T08:18:25Z</time>
      </trkpt>
      <trkpt lat="47.1216" lon="5.47688">
        <ele>289</ele>
        <time>2017-10-11T08:18:42Z</time>
      </trkpt>
      <trkpt lat="47.12164" lon="5.47685">
        <ele>289</ele>
        <time>2017-10-11T08:18:47Z</time>
      </trkpt>
      <trkpt lat="47.12173" lon="5.47683">
        <ele>288</ele>
        <time>2017-10-11T08:19:00Z</time>
      </trkpt>
      <trkpt lat="47.12178" lon="5.4768">
        <ele>287</ele>
        <time>2017-10-11T08:19:08Z</time>
      </trkpt>
      <trkpt lat="47.12181" lon="5.47676">
        <ele>287</ele>
        <time>2017-10-11T08:19:16Z</time>
      </trkpt>
      <trkpt lat="47.12186" lon="5.47676">
        <ele>288</ele>
        <time>2017-10-11T08:19:23Z</time>
      </trkpt>
      <trkpt lat="47.12191" lon="5.47677">
        <ele>287</ele>
        <time>2017-10-11T08:19:27Z</time>
      </trkpt>
      <trkpt lat="47.12201" lon="5.4768">
        <ele>288</ele>
        <time>2017-10-11T08:19:36Z</time>
      </trkpt>
      <trkpt lat="47.1221" lon="5.47675">
        <ele>289</ele>
        <time>2017-10-11T08:19:45Z</time>
      </trkpt>
      <trkpt lat="47.12225" lon="5.47661">
        <ele>293</ele>
        <time>2017-10-11T08:20:16Z</time>
      </trkpt>
      <trkpt lat="47.1223" lon="5.47659">
        <ele>296</ele>
        <time>2017-10-11T08:20:25Z</time>
      </trkpt>
      <trkpt lat="47.12235" lon="5.47651">
        <ele>298</ele>
        <time>2017-10-11T08:20:39Z</time>
      </trkpt>
      <trkpt lat="47.12236" lon="5.47638">
        <ele>301</ele>
        <time>2017-10-11T08:20:54Z</time>
      </trkpt>
      <trkpt lat="47.12235" lon="5.4763">
        <ele>301</ele>
        <time>2017-10-11T08:21:01Z</time>
      </trkpt>
      <trkpt lat="47.12236" lon="5.47623">
        <ele>303</ele>
        <time>2017-10-11T08:21:08Z</time>
      </trkpt>
      <trkpt lat="47.1224" lon="5.4761">
        <ele>307</ele>
        <time>2017-10-11T08:21:24Z</time>
      </trkpt>
      <trkpt lat="47.12243" lon="5.47606">
        <ele>308</ele>
        <time>2017-10-11T08:21:31Z</time>
      </trkpt>
      <trkpt lat="47.12248" lon="5.47604">
        <ele>310</ele>
        <time>2017-10-11T08:21:36Z</time>
      </trkpt>
      <trkpt lat="47.12252" lon="5.47601">
        <ele>312</ele>
        <time>2017-10-11T08:21:43Z</time>
      </trkpt>
      <trkpt lat="47.12257" lon="5.47599">
        <ele>314</ele>
        <time>2017-10-11T08:21:49Z</time>
      </trkpt>
      <trkpt lat="47.12264" lon="5.4759">
        <ele>316</ele>
        <time>2017-10-11T08:22:07Z</time>
      </trkpt>
      <trkpt lat="47.12278" lon="5.47581">
        <ele>317</ele>
        <time>2017-10-11T08:22:30Z</time>
      </trkpt>
      <trkpt lat="47.12282" lon="5.47576">
        <ele>318</ele>
        <time>2017-10-11T08:22:38Z</time>
      </trkpt>
      <trkpt lat="47.12295" lon="5.4757">
        <ele>322</ele>
        <time>2017-10-11T08:22:59Z</time>
      </trkpt>
      <trkpt lat="47.12298" lon="5.47564">
        <ele>324</ele>
        <time>2017-10-11T08:23:06Z</time>
      </trkpt>
      <trkpt lat="47.12301" lon="5.47559">
        <ele>325</ele>
        <time>2017-10-11T08:23:13Z</time>
      </trkpt>
      <trkpt lat="47.12302" lon="5.47552">
        <ele>327</ele>
        <time>2017-10-11T08:23:21Z</time>
      </trkpt>
      <trkpt lat="47.12304" lon="5.47546">
        <ele>327</ele>
        <time>2017-10-11T08:23:27Z</time>
      </trkpt>
      <trkpt lat="47.12305" lon="5.47539">
        <ele>329</ele>
        <time>2017-10-11T08:23:35Z</time>
      </trkpt>
      <trkpt lat="47.12311" lon="5.47533">
        <ele>330</ele>
        <time>2017-10-11T08:24:19Z</time>
      </trkpt>
      <trkpt lat="47.12316" lon="5.47532">
        <ele>331</ele>
        <time>2017-10-11T08:24:23Z</time>
      </trkpt>
      <trkpt lat="47.12322" lon="5.47531">
        <ele>331</ele>
        <time>2017-10-11T08:24:27Z</time>
      </trkpt>
      <trkpt lat="47.12327" lon="5.47531">
        <ele>332</ele>
        <time>2017-10-11T08:24:32Z</time>
      </trkpt>
      <trkpt lat="47.12356" lon="5.47544">
        <ele>335</ele>
        <time>2017-10-11T08:25:03Z</time>
      </trkpt>
      <trkpt lat="47.1236" lon="5.47546">
        <ele>335</ele>
        <time>2017-10-11T08:25:07Z</time>
      </trkpt>
      <trkpt lat="47.12375" lon="5.47549">
        <ele>336</ele>
        <time>2017-10-11T08:25:21Z</time>
      </trkpt>
      <trkpt lat="47.12384" lon="5.47553">
        <ele>336</ele>
        <time>2017-10-11T08:25:32Z</time>
      </trkpt>
      <trkpt lat="47.12394" lon="5.47552">
        <ele>335</ele>
        <time>2017-10-11T08:25:41Z</time>
      </trkpt>
      <trkpt lat="47.12399" lon="5.4755">
        <ele>335</ele>
        <time>2017-10-11T08:25:47Z</time>
      </trkpt>
      <trkpt lat="47.12403" lon="5.47549">
        <ele>335</ele>
        <time>2017-10-11T08:25:52Z</time>
      </trkpt>
      <trkpt lat="47.12408" lon="5.47551">
        <ele>335</ele>
        <time>2017-10-11T08:25:58Z</time>
      </trkpt>
      <trkpt lat="47.1241" lon="5.47542">
        <ele>337</ele>
        <time>2017-10-11T08:26:47Z</time>
      </trkpt>
      <trkpt lat="47.12412" lon="5.47536">
        <ele>338</ele>
        <time>2017-10-11T08:26:53Z</time>
      </trkpt>
      <trkpt lat="47.12416" lon="5.47531">
        <ele>338</ele>
        <time>2017-10-11T08:26:58Z</time>
      </trkpt>
      <trkpt lat="47.12426" lon="5.47515">
        <ele>339</ele>
        <time>2017-10-11T08:27:09Z</time>
      </trkpt>
      <trkpt lat="47.12429" lon="5.4751">
        <ele>341</ele>
        <time>2017-10-11T08:27:13Z</time>
      </trkpt>
      <trkpt lat="47.12431" lon="5.47504">
        <ele>342</ele>
        <time>2017-10-11T08:27:18Z</time>
      </trkpt>
      <trkpt lat="47.1244" lon="5.47483">
        <ele>343</ele>
        <time>2017-10-11T08:28:01Z</time>
      </trkpt>
      <trkpt lat="47.12444" lon="5.47477">
        <ele>344</ele>
        <time>2017-10-11T08:28:20Z</time>
      </trkpt>
      <trkpt lat="47.1244" lon="5.47475">
        <ele>344</ele>
        <time>2017-10-11T08:28:35Z</time>
      </trkpt>
      <trkpt lat="47.12435" lon="5.47473">
        <ele>344</ele>
        <time>2017-10-11T08:28:40Z</time>
      </trkpt>
      <trkpt lat="47.12434" lon="5.47476">
        <ele>342</ele>
        <time>2017-10-11T08:29:54Z</time>
      </trkpt>
      <trkpt lat="47.12438" lon="5.4748">
        <ele>342</ele>
        <time>2017-10-11T08:30:00Z</time>
      </trkpt>
      <trkpt lat="47.12436" lon="5.47484">
        <ele>341</ele>
        <time>2017-10-11T08:31:03Z</time>
      </trkpt>
      <trkpt lat="47.12442" lon="5.47484">
        <ele>341</ele>
        <time>2017-10-11T08:31:15Z</time>
      </trkpt>
      <trkpt lat="47.12446" lon="5.47481">
        <ele>341</ele>
        <time>2017-10-11T08:31:21Z</time>
      </trkpt>
      <trkpt lat="47.12451" lon="5.4748">
        <ele>342</ele>
        <time>2017-10-11T08:31:27Z</time>
      </trkpt>
      <trkpt lat="47.12456" lon="5.47481">
        <ele>343</ele>
        <time>2017-10-11T08:31:35Z</time>
      </trkpt>
      <trkpt lat="47.1246" lon="5.47478">
        <ele>344</ele>
        <time>2017-10-11T08:31:47Z</time>
      </trkpt>
      <trkpt lat="47.12464" lon="5.47475">
        <ele>345</ele>
        <time>2017-10-11T08:31:51Z</time>
      </trkpt>
      <trkpt lat="47.12469" lon="5.4747">
        <ele>346</ele>
        <time>2017-10-11T08:31:55Z</time>
      </trkpt>
      <trkpt lat="47.12478" lon="5.47452">
        <ele>348</ele>
        <time>2017-10-11T08:32:12Z</time>
      </trkpt>
      <trkpt lat="47.12483" lon="5.47439">
        <ele>348</ele>
        <time>2017-10-11T08:32:22Z</time>
      </trkpt>
      <trkpt lat="47.12484" lon="5.47432">
        <ele>347</ele>
        <time>2017-10-11T08:32:27Z</time>
      </trkpt>
      <trkpt lat="47.12486" lon="5.47412">
        <ele>347</ele>
        <time>2017-10-11T08:32:39Z</time>
      </trkpt>
      <trkpt lat="47.12494" lon="5.47382">
        <ele>344</ele>
        <time>2017-10-11T08:32:59Z</time>
      </trkpt>
      <trkpt lat="47.12495" lon="5.47374">
        <ele>344</ele>
        <time>2017-10-11T08:33:04Z</time>
      </trkpt>
      <trkpt lat="47.12505" lon="5.47334">
        <ele>341</ele>
        <time>2017-10-11T08:33:33Z</time>
      </trkpt>
      <trkpt lat="47.12507" lon="5.47329">
        <ele>341</ele>
        <time>2017-10-11T08:33:38Z</time>
      </trkpt>
      <trkpt lat="47.12509" lon="5.47322">
        <ele>340</ele>
        <time>2017-10-11T08:33:45Z</time>
      </trkpt>
      <trkpt lat="47.12509" lon="5.47315">
        <ele>340</ele>
        <time>2017-10-11T08:33:52Z</time>
      </trkpt>
      <trkpt lat="47.12518" lon="5.47298">
        <ele>339</ele>
        <time>2017-10-11T08:34:06Z</time>
      </trkpt>
      <trkpt lat="47.12526" lon="5.47277">
        <ele>337</ele>
        <time>2017-10-11T08:34:23Z</time>
      </trkpt>
      <trkpt lat="47.12532" lon="5.47258">
        <ele>337</ele>
        <time>2017-10-11T08:34:36Z</time>
      </trkpt>
      <trkpt lat="47.12553" lon="5.4723">
        <ele>336</ele>
        <time>2017-10-11T08:35:05Z</time>
      </trkpt>
      <trkpt lat="47.12557" lon="5.47223">
        <ele>335</ele>
        <time>2017-10-11T08:35:11Z</time>
      </trkpt>
      <trkpt lat="47.12565" lon="5.47214">
        <ele>334</ele>
        <time>2017-10-11T08:35:21Z</time>
      </trkpt>
      <trkpt lat="47.12568" lon="5.47208">
        <ele>334</ele>
        <time>2017-10-11T08:35:27Z</time>
      </trkpt>
      <trkpt lat="47.12571" lon="5.47203">
        <ele>333</ele>
        <time>2017-10-11T08:35:33Z</time>
      </trkpt>
      <trkpt lat="47.12575" lon="5.47199">
        <ele>333</ele>
        <time>2017-10-11T08:35:37Z</time>
      </trkpt>
      <trkpt lat="47.1258" lon="5.47199">
        <ele>333</ele>
        <time>2017-10-11T08:35:42Z</time>
      </trkpt>
      <trkpt lat="47.12614" lon="5.47214">
        <ele>329</ele>
        <time>2017-10-11T08:36:15Z</time>
      </trkpt>
      <trkpt lat="47.12619" lon="5.47216">
        <ele>329</ele>
        <time>2017-10-11T08:36:20Z</time>
      </trkpt>
      <trkpt lat="47.12623" lon="5.47218">
        <ele>329</ele>
        <time>2017-10-11T08:36:24Z</time>
      </trkpt>
      <trkpt lat="47.12632" lon="5.47226">
        <ele>329</ele>
        <time>2017-10-11T08:36:32Z</time>
      </trkpt>
      <trkpt lat="47.12636" lon="5.47231">
        <ele>330</ele>
        <time>2017-10-11T08:36:38Z</time>
      </trkpt>
      <trkpt lat="47.12656" lon="5.47251">
        <ele>329</ele>
        <time>2017-10-11T08:36:57Z</time>
      </trkpt>
      <trkpt lat="47.12675" lon="5.47281">
        <ele>327</ele>
        <time>2017-10-11T08:37:20Z</time>
      </trkpt>
      <trkpt lat="47.12684" lon="5.47287">
        <ele>328</ele>
        <time>2017-10-11T08:37:29Z</time>
      </trkpt>
      <trkpt lat="47.12693" lon="5.47288">
        <ele>328</ele>
        <time>2017-10-11T08:37:39Z</time>
      </trkpt>
      <trkpt lat="47.12703" lon="5.47293">
        <ele>329</ele>
        <time>2017-10-11T08:37:47Z</time>
      </trkpt>
      <trkpt lat="47.12712" lon="5.47299">
        <ele>328</ele>
        <time>2017-10-11T08:37:55Z</time>
      </trkpt>
      <trkpt lat="47.12717" lon="5.47302">
        <ele>329</ele>
        <time>2017-10-11T08:37:59Z</time>
      </trkpt>
      <trkpt lat="47.12736" lon="5.47315">
        <ele>331</ele>
        <time>2017-10-11T08:38:15Z</time>
      </trkpt>
      <trkpt lat="47.12756" lon="5.47336">
        <ele>332</ele>
        <time>2017-10-11T08:38:36Z</time>
      </trkpt>
      <trkpt lat="47.12761" lon="5.47341">
        <ele>333</ele>
        <time>2017-10-11T08:38:40Z</time>
      </trkpt>
      <trkpt lat="47.12768" lon="5.4735">
        <ele>332</ele>
        <time>2017-10-11T08:38:48Z</time>
      </trkpt>
      <trkpt lat="47.12775" lon="5.4736">
        <ele>332</ele>
        <time>2017-10-11T08:38:56Z</time>
      </trkpt>
      <trkpt lat="47.12783" lon="5.47369">
        <ele>331</ele>
        <time>2017-10-11T08:39:04Z</time>
      </trkpt>
      <trkpt lat="47.128" lon="5.47397">
        <ele>330</ele>
        <time>2017-10-11T08:39:24Z</time>
      </trkpt>
      <trkpt lat="47.12802" lon="5.47403">
        <ele>330</ele>
        <time>2017-10-11T08:39:28Z</time>
      </trkpt>
      <trkpt lat="47.12809" lon="5.47414">
        <ele>329</ele>
        <time>2017-10-11T08:39:36Z</time>
      </trkpt>
      <trkpt lat="47.12812" lon="5.47421">
        <ele>330</ele>
        <time>2017-10-11T08:39:40Z</time>
      </trkpt>
      <trkpt lat="47.12815" lon="5.47427">
        <ele>330</ele>
        <time>2017-10-11T08:39:44Z</time>
      </trkpt>
      <trkpt lat="47.12822" lon="5.47438">
        <ele>330</ele>
        <time>2017-10-11T08:39:52Z</time>
      </trkpt>
      <trkpt lat="47.12824" lon="5.47444">
        <ele>331</ele>
        <time>2017-10-11T08:39:56Z</time>
      </trkpt>
      <trkpt lat="47.12831" lon="5.47465">
        <ele>331</ele>
        <time>2017-10-11T08:40:08Z</time>
      </trkpt>
      <trkpt lat="47.12834" lon="5.47471">
        <ele>331</ele>
        <time>2017-10-11T08:40:12Z</time>
      </trkpt>
      <trkpt lat="47.12838" lon="5.47484">
        <ele>331</ele>
        <time>2017-10-11T08:40:20Z</time>
      </trkpt>
      <trkpt lat="47.12839" lon="5.475">
        <ele>331</ele>
        <time>2017-10-11T08:40:30Z</time>
      </trkpt>
      <trkpt lat="47.12838" lon="5.47507">
        <ele>330</ele>
        <time>2017-10-11T08:40:35Z</time>
      </trkpt>
      <trkpt lat="47.12837" lon="5.47514">
        <ele>330</ele>
        <time>2017-10-11T08:40:41Z</time>
      </trkpt>
      <trkpt lat="47.12835" lon="5.4752">
        <ele>330</ele>
        <time>2017-10-11T08:40:45Z</time>
      </trkpt>
      <trkpt lat="47.12836" lon="5.47527">
        <ele>329</ele>
        <time>2017-10-11T08:40:52Z</time>
      </trkpt>
      <trkpt lat="47.1284" lon="5.47533">
        <ele>329</ele>
        <time>2017-10-11T08:40:58Z</time>
      </trkpt>
      <trkpt lat="47.12841" lon="5.4754">
        <ele>329</ele>
        <time>2017-10-11T08:41:02Z</time>
      </trkpt>
      <trkpt lat="47.12838" lon="5.47545">
        <ele>329</ele>
        <time>2017-10-11T08:41:07Z</time>
      </trkpt>
      <trkpt lat="47.12833" lon="5.47546">
        <ele>329</ele>
        <time>2017-10-11T08:41:12Z</time>
      </trkpt>
      <trkpt lat="47.12828" lon="5.47549">
        <ele>329</ele>
        <time>2017-10-11T08:41:17Z</time>
      </trkpt>
      <trkpt lat="47.12827" lon="5.47557">
        <ele>329</ele>
        <time>2017-10-11T08:41:23Z</time>
      </trkpt>
      <trkpt lat="47.12825" lon="5.47563">
        <ele>329</ele>
        <time>2017-10-11T08:41:28Z</time>
      </trkpt>
      <trkpt lat="47.12821" lon="5.47567">
        <ele>329</ele>
        <time>2017-10-11T08:41:33Z</time>
      </trkpt>
      <trkpt lat="47.12817" lon="5.47573">
        <ele>328</ele>
        <time>2017-10-11T08:41:38Z</time>
      </trkpt>
      <trkpt lat="47.12816" lon="5.47603">
        <ele>329</ele>
        <time>2017-10-11T08:41:54Z</time>
      </trkpt>
      <trkpt lat="47.12813" lon="5.47617">
        <ele>329</ele>
        <time>2017-10-11T08:42:01Z</time>
      </trkpt>
      <trkpt lat="47.12808" lon="5.47629">
        <ele>329</ele>
        <time>2017-10-11T08:42:08Z</time>
      </trkpt>
      <trkpt lat="47.12803" lon="5.47641">
        <ele>330</ele>
        <time>2017-10-11T08:42:17Z</time>
      </trkpt>
      <trkpt lat="47.12801" lon="5.47654">
        <ele>330</ele>
        <time>2017-10-11T08:42:24Z</time>
      </trkpt>
      <trkpt lat="47.12796" lon="5.47667">
        <ele>331</ele>
        <time>2017-10-11T08:42:32Z</time>
      </trkpt>
      <trkpt lat="47.12793" lon="5.47674">
        <ele>330</ele>
        <time>2017-10-11T08:42:37Z</time>
      </trkpt>
      <trkpt lat="47.12791" lon="5.4768">
        <ele>330</ele>
        <time>2017-10-11T08:42:42Z</time>
      </trkpt>
      <trkpt lat="47.12791" lon="5.47687">
        <ele>331</ele>
        <time>2017-10-11T08:42:50Z</time>
      </trkpt>
      <trkpt lat="47.12795" lon="5.4769">
        <ele>331</ele>
        <time>2017-10-11T08:42:55Z</time>
      </trkpt>
      <trkpt lat="47.128" lon="5.47689">
        <ele>331</ele>
        <time>2017-10-11T08:43:00Z</time>
      </trkpt>
      <trkpt lat="47.12811" lon="5.4769">
        <ele>332</ele>
        <time>2017-10-11T08:43:10Z</time>
      </trkpt>
      <trkpt lat="47.12821" lon="5.47692">
        <ele>332</ele>
        <time>2017-10-11T08:43:22Z</time>
      </trkpt>
      <trkpt lat="47.12826" lon="5.47689">
        <ele>332</ele>
        <time>2017-10-11T08:43:27Z</time>
      </trkpt>
      <trkpt lat="47.12841" lon="5.47687">
        <ele>332</ele>
        <time>2017-10-11T08:43:39Z</time>
      </trkpt>
      <trkpt lat="47.1285" lon="5.47685">
        <ele>332</ele>
        <time>2017-10-11T08:43:48Z</time>
      </trkpt>
      <trkpt lat="47.12854" lon="5.47682">
        <ele>332</ele>
        <time>2017-10-11T08:43:54Z</time>
      </trkpt>
      <trkpt lat="47.12865" lon="5.47679">
        <ele>332</ele>
        <time>2017-10-11T08:44:02Z</time>
      </trkpt>
      <trkpt lat="47.12869" lon="5.47678">
        <ele>332</ele>
        <time>2017-10-11T08:44:06Z</time>
      </trkpt>
      <trkpt lat="47.12874" lon="5.47676">
        <ele>332</ele>
        <time>2017-10-11T08:44:10Z</time>
      </trkpt>
      <trkpt lat="47.12878" lon="5.47674">
        <ele>331</ele>
        <time>2017-10-11T08:44:14Z</time>
      </trkpt>
      <trkpt lat="47.12883" lon="5.47672">
        <ele>330</ele>
        <time>2017-10-11T08:44:18Z</time>
      </trkpt>
      <trkpt lat="47.12894" lon="5.47673">
        <ele>330</ele>
        <time>2017-10-11T08:44:27Z</time>
      </trkpt>
      <trkpt lat="47.12898" lon="5.47676">
        <ele>329</ele>
        <time>2017-10-11T08:44:33Z</time>
      </trkpt>
      <trkpt lat="47.12903" lon="5.47679">
        <ele>330</ele>
        <time>2017-10-11T08:44:37Z</time>
      </trkpt>
      <trkpt lat="47.12908" lon="5.47683">
        <ele>330</ele>
        <time>2017-10-11T08:44:42Z</time>
      </trkpt>
      <trkpt lat="47.12913" lon="5.47684">
        <ele>329</ele>
        <time>2017-10-11T08:44:48Z</time>
      </trkpt>
      <trkpt lat="47.12918" lon="5.47684">
        <ele>329</ele>
        <time>2017-10-11T08:44:52Z</time>
      </trkpt>
      <trkpt lat="47.12922" lon="5.47686">
        <ele>329</ele>
        <time>2017-10-11T08:44:56Z</time>
      </trkpt>
      <trkpt lat="47.12927" lon="5.47686">
        <ele>328</ele>
        <time>2017-10-11T08:45:01Z</time>
      </trkpt>
      <trkpt lat="47.12932" lon="5.47687">
        <ele>327</ele>
        <time>2017-10-11T08:45:07Z</time>
      </trkpt>
      <trkpt lat="47.12937" lon="5.47689">
        <ele>327</ele>
        <time>2017-10-11T08:45:14Z</time>
      </trkpt>
      <trkpt lat="47.12942" lon="5.47688">
        <ele>326</ele>
        <time>2017-10-11T08:45:20Z</time>
      </trkpt>
      <trkpt lat="47.12947" lon="5.47689">
        <ele>326</ele>
        <time>2017-10-11T08:45:24Z</time>
      </trkpt>
      <trkpt lat="47.12951" lon="5.47692">
        <ele>326</ele>
        <time>2017-10-11T08:45:28Z</time>
      </trkpt>
      <trkpt lat="47.1296" lon="5.47697">
        <ele>326</ele>
        <time>2017-10-11T08:45:38Z</time>
      </trkpt>
      <trkpt lat="47.12964" lon="5.47703">
        <ele>326</ele>
        <time>2017-10-11T08:45:45Z</time>
      </trkpt>
      <trkpt lat="47.12969" lon="5.47707">
        <ele>326</ele>
        <time>2017-10-11T08:45:51Z</time>
      </trkpt>
      <trkpt lat="47.12978" lon="5.47713">
        <ele>326</ele>
        <time>2017-10-11T08:46:01Z</time>
      </trkpt>
      <trkpt lat="47.12994" lon="5.47727">
        <ele>325</ele>
        <time>2017-10-11T08:46:19Z</time>
      </trkpt>
      <trkpt lat="47.13002" lon="5.47735">
        <ele>323</ele>
        <time>2017-10-11T08:46:29Z</time>
      </trkpt>
      <trkpt lat="47.13006" lon="5.47739">
        <ele>323</ele>
        <time>2017-10-11T08:46:34Z</time>
      </trkpt>
      <trkpt lat="47.13018" lon="5.47752">
        <ele>321</ele>
        <time>2017-10-11T08:46:50Z</time>
      </trkpt>
      <trkpt lat="47.1302" lon="5.47759">
        <ele>320</ele>
        <time>2017-10-11T08:46:54Z</time>
      </trkpt>
      <trkpt lat="47.13026" lon="5.4777">
        <ele>319</ele>
        <time>2017-10-11T08:47:04Z</time>
      </trkpt>
      <trkpt lat="47.13032" lon="5.47783">
        <ele>319</ele>
        <time>2017-10-11T08:47:13Z</time>
      </trkpt>
      <trkpt lat="47.13032" lon="5.4779">
        <ele>318</ele>
        <time>2017-10-11T08:47:19Z</time>
      </trkpt>
      <trkpt lat="47.13031" lon="5.47804">
        <ele>317</ele>
        <time>2017-10-11T08:47:30Z</time>
      </trkpt>
      <trkpt lat="47.13028" lon="5.47817">
        <ele>317</ele>
        <time>2017-10-11T08:47:38Z</time>
      </trkpt>
      <trkpt lat="47.13009" lon="5.47847">
        <ele>313</ele>
        <time>2017-10-11T08:48:13Z</time>
      </trkpt>
      <trkpt lat="47.13003" lon="5.47857">
        <ele>313</ele>
        <time>2017-10-11T08:48:26Z</time>
      </trkpt>
      <trkpt lat="47.12994" lon="5.47879">
        <ele>311</ele>
        <time>2017-10-11T08:48:45Z</time>
      </trkpt>
      <trkpt lat="47.12992" lon="5.47885">
        <ele>311</ele>
        <time>2017-10-11T08:48:49Z</time>
      </trkpt>
      <trkpt lat="47.12985" lon="5.47895">
        <ele>311</ele>
        <time>2017-10-11T08:48:57Z</time>
      </trkpt>
      <trkpt lat="47.12981" lon="5.47909">
        <ele>310</ele>
        <time>2017-10-11T08:49:07Z</time>
      </trkpt>
      <trkpt lat="47.1298" lon="5.47917">
        <ele>309</ele>
        <time>2017-10-11T08:49:13Z</time>
      </trkpt>
      <trkpt lat="47.12976" lon="5.47938">
        <ele>309</ele>
        <time>2017-10-11T08:49:29Z</time>
      </trkpt>
      <trkpt lat="47.12973" lon="5.4795">
        <ele>310</ele>
        <time>2017-10-11T08:49:37Z</time>
      </trkpt>
      <trkpt lat="47.12967" lon="5.47962">
        <ele>311</ele>
        <time>2017-10-11T08:49:45Z</time>
      </trkpt>
      <trkpt lat="47.12964" lon="5.47984">
        <ele>311</ele>
        <time>2017-10-11T08:49:56Z</time>
      </trkpt>
      <trkpt lat="47.12965" lon="5.47999">
        <ele>310</ele>
        <time>2017-10-11T08:50:05Z</time>
      </trkpt>
      <trkpt lat="47.12962" lon="5.48012">
        <ele>310</ele>
        <time>2017-10-11T08:50:12Z</time>
      </trkpt>
      <trkpt lat="47.12959" lon="5.48017">
        <ele>311</ele>
        <time>2017-10-11T08:50:16Z</time>
      </trkpt>
      <trkpt lat="47.12957" lon="5.48024">
        <ele>311</ele>
        <time>2017-10-11T08:50:21Z</time>
      </trkpt>
      <trkpt lat="47.12955" lon="5.48039">
        <ele>310</ele>
        <time>2017-10-11T08:50:31Z</time>
      </trkpt>
      <trkpt lat="47.12951" lon="5.48052">
        <ele>310</ele>
        <time>2017-10-11T08:50:41Z</time>
      </trkpt>
      <trkpt lat="47.12948" lon="5.48073">
        <ele>311</ele>
        <time>2017-10-11T08:50:59Z</time>
      </trkpt>
      <trkpt lat="47.12947" lon="5.4808">
        <ele>311</ele>
        <time>2017-10-11T08:51:03Z</time>
      </trkpt>
      <trkpt lat="47.12947" lon="5.48088">
        <ele>312</ele>
        <time>2017-10-11T08:51:08Z</time>
      </trkpt>
      <trkpt lat="47.12944" lon="5.48109">
        <ele>313</ele>
        <time>2017-10-11T08:51:24Z</time>
      </trkpt>
      <trkpt lat="47.1294" lon="5.48122">
        <ele>314</ele>
        <time>2017-10-11T08:51:34Z</time>
      </trkpt>
      <trkpt lat="47.12935" lon="5.48126">
        <ele>316</ele>
        <time>2017-10-11T08:55:50Z</time>
      </trkpt>
      <trkpt lat="47.12936" lon="5.48133">
        <ele>316</ele>
        <time>2017-10-11T08:56:04Z</time>
      </trkpt>
      <trkpt lat="47.12937" lon="5.4814">
        <ele>317</ele>
        <time>2017-10-11T08:56:09Z</time>
      </trkpt>
      <trkpt lat="47.1294" lon="5.48146">
        <ele>317</ele>
        <time>2017-10-11T08:56:14Z</time>
      </trkpt>
      <trkpt lat="47.12942" lon="5.48153">
        <ele>319</ele>
        <time>2017-10-11T08:56:19Z</time>
      </trkpt>
      <trkpt lat="47.12944" lon="5.48159">
        <ele>319</ele>
        <time>2017-10-11T08:56:24Z</time>
      </trkpt>
      <trkpt lat="47.12945" lon="5.48167">
        <ele>319</ele>
        <time>2017-10-11T08:56:29Z</time>
      </trkpt>
      <trkpt lat="47.12944" lon="5.48175">
        <ele>319</ele>
        <time>2017-10-11T08:56:34Z</time>
      </trkpt>
      <trkpt lat="47.12941" lon="5.48188">
        <ele>319</ele>
        <time>2017-10-11T08:56:44Z</time>
      </trkpt>
      <trkpt lat="47.12941" lon="5.48195">
        <ele>319</ele>
        <time>2017-10-11T08:56:48Z</time>
      </trkpt>
      <trkpt lat="47.1294" lon="5.48224">
        <ele>321</ele>
        <time>2017-10-11T08:57:07Z</time>
      </trkpt>
      <trkpt lat="47.12945" lon="5.48238">
        <ele>322</ele>
        <time>2017-10-11T08:57:18Z</time>
      </trkpt>
      <trkpt lat="47.12947" lon="5.48244">
        <ele>322</ele>
        <time>2017-10-11T08:57:23Z</time>
      </trkpt>
      <trkpt lat="47.12947" lon="5.48251">
        <ele>323</ele>
        <time>2017-10-11T08:57:27Z</time>
      </trkpt>
      <trkpt lat="47.12947" lon="5.48258">
        <ele>323</ele>
        <time>2017-10-11T08:57:31Z</time>
      </trkpt>
      <trkpt lat="47.12948" lon="5.48266">
        <ele>323</ele>
        <time>2017-10-11T08:57:36Z</time>
      </trkpt>
      <trkpt lat="47.12953" lon="5.48279">
        <ele>324</ele>
        <time>2017-10-11T08:57:46Z</time>
      </trkpt>
      <trkpt lat="47.12955" lon="5.48285">
        <ele>325</ele>
        <time>2017-10-11T08:57:55Z</time>
      </trkpt>
      <trkpt lat="47.12956" lon="5.48306">
        <ele>326</ele>
        <time>2017-10-11T08:58:09Z</time>
      </trkpt>
      <trkpt lat="47.12958" lon="5.48312">
        <ele>327</ele>
        <time>2017-10-11T08:58:14Z</time>
      </trkpt>
      <trkpt lat="47.12959" lon="5.48319">
        <ele>327</ele>
        <time>2017-10-11T08:58:19Z</time>
      </trkpt>
      <trkpt lat="47.12968" lon="5.48345">
        <ele>326</ele>
        <time>2017-10-11T08:58:41Z</time>
      </trkpt>
      <trkpt lat="47.12974" lon="5.48355">
        <ele>327</ele>
        <time>2017-10-11T08:58:50Z</time>
      </trkpt>
      <trkpt lat="47.12977" lon="5.48363">
        <ele>327</ele>
        <time>2017-10-11T08:58:55Z</time>
      </trkpt>
      <trkpt lat="47.12982" lon="5.48384">
        <ele>328</ele>
        <time>2017-10-11T08:59:10Z</time>
      </trkpt>
      <trkpt lat="47.12983" lon="5.48391">
        <ele>327</ele>
        <time>2017-10-11T08:59:16Z</time>
      </trkpt>
      <trkpt lat="47.12981" lon="5.48399">
        <ele>327</ele>
        <time>2017-10-11T08:59:23Z</time>
      </trkpt>
      <trkpt lat="47.12979" lon="5.48404">
        <ele>326</ele>
        <time>2017-10-11T08:59:29Z</time>
      </trkpt>
      <trkpt lat="47.12972" lon="5.48414">
        <ele>325</ele>
        <time>2017-10-11T08:59:41Z</time>
      </trkpt>
      <trkpt lat="47.12966" lon="5.48425">
        <ele>325</ele>
        <time>2017-10-11T08:59:49Z</time>
      </trkpt>
      <trkpt lat="47.12965" lon="5.48432">
        <ele>324</ele>
        <time>2017-10-11T08:59:55Z</time>
      </trkpt>
      <trkpt lat="47.12965" lon="5.4844">
        <ele>323</ele>
        <time>2017-10-11T09:00:01Z</time>
      </trkpt>
      <trkpt lat="47.12963" lon="5.48446">
        <ele>323</ele>
        <time>2017-10-11T09:00:06Z</time>
      </trkpt>
      <trkpt lat="47.1296" lon="5.48458">
        <ele>323</ele>
        <time>2017-10-11T09:00:35Z</time>
      </trkpt>
      <trkpt lat="47.12959" lon="5.48465">
        <ele>324</ele>
        <time>2017-10-11T09:00:41Z</time>
      </trkpt>
      <trkpt lat="47.1296" lon="5.48479">
        <ele>324</ele>
        <time>2017-10-11T09:00:56Z</time>
      </trkpt>
      <trkpt lat="47.12963" lon="5.48506">
        <ele>324</ele>
        <time>2017-10-11T09:01:13Z</time>
      </trkpt>
      <trkpt lat="47.12962" lon="5.48519">
        <ele>324</ele>
        <time>2017-10-11T09:01:22Z</time>
      </trkpt>
      <trkpt lat="47.12959" lon="5.48532">
        <ele>324</ele>
        <time>2017-10-11T09:01:33Z</time>
      </trkpt>
      <trkpt lat="47.12954" lon="5.48544">
        <ele>324</ele>
        <time>2017-10-11T09:01:45Z</time>
      </trkpt>
      <trkpt lat="47.12949" lon="5.48556">
        <ele>324</ele>
        <time>2017-10-11T09:01:54Z</time>
      </trkpt>
      <trkpt lat="47.12947" lon="5.48569">
        <ele>324</ele>
        <time>2017-10-11T09:02:05Z</time>
      </trkpt>
      <trkpt lat="47.1294" lon="5.48594">
        <ele>325</ele>
        <time>2017-10-11T09:02:22Z</time>
      </trkpt>
      <trkpt lat="47.12928" lon="5.48616">
        <ele>324</ele>
        <time>2017-10-11T09:02:41Z</time>
      </trkpt>
      <trkpt lat="47.12924" lon="5.48629">
        <ele>324</ele>
        <time>2017-10-11T09:02:54Z</time>
      </trkpt>
      <trkpt lat="47.12921" lon="5.48641">
        <ele>325</ele>
        <time>2017-10-11T09:03:04Z</time>
      </trkpt>
      <trkpt lat="47.12911" lon="5.48666">
        <ele>325</ele>
        <time>2017-10-11T09:03:23Z</time>
      </trkpt>
      <trkpt lat="47.12907" lon="5.48681">
        <ele>325</ele>
        <time>2017-10-11T09:03:32Z</time>
      </trkpt>
      <trkpt lat="47.12903" lon="5.48694">
        <ele>326</ele>
        <time>2017-10-11T09:03:43Z</time>
      </trkpt>
      <trkpt lat="47.12896" lon="5.48703">
        <ele>327</ele>
        <time>2017-10-11T09:03:52Z</time>
      </trkpt>
      <trkpt lat="47.12897" lon="5.48717">
        <ele>327</ele>
        <time>2017-10-11T09:04:02Z</time>
      </trkpt>
      <trkpt lat="47.12897" lon="5.48731">
        <ele>327</ele>
        <time>2017-10-11T09:04:10Z</time>
      </trkpt>
      <trkpt lat="47.12891" lon="5.48743">
        <ele>328</ele>
        <time>2017-10-11T09:04:17Z</time>
      </trkpt>
      <trkpt lat="47.12874" lon="5.48747">
        <ele>328</ele>
        <time>2017-10-11T09:04:48Z</time>
      </trkpt>
      <trkpt lat="47.12865" lon="5.4875">
        <ele>328</ele>
        <time>2017-10-11T09:04:54Z</time>
      </trkpt>
      <trkpt lat="47.12855" lon="5.48751">
        <ele>326</ele>
        <time>2017-10-11T09:05:04Z</time>
      </trkpt>
      <trkpt lat="47.12826" lon="5.48756">
        <ele>327</ele>
        <time>2017-10-11T09:05:26Z</time>
      </trkpt>
      <trkpt lat="47.12818" lon="5.48761">
        <ele>327</ele>
        <time>2017-10-11T09:05:36Z</time>
      </trkpt>
      <trkpt lat="47.12807" lon="5.48761">
        <ele>328</ele>
        <time>2017-10-11T09:05:43Z</time>
      </trkpt>
      <trkpt lat="47.12798" lon="5.48762">
        <ele>330</ele>
        <time>2017-10-11T09:05:51Z</time>
      </trkpt>
      <trkpt lat="47.12789" lon="5.4876">
        <ele>330</ele>
        <time>2017-10-11T09:05:58Z</time>
      </trkpt>
      <trkpt lat="47.1278" lon="5.48763">
        <ele>329</ele>
        <time>2017-10-11T09:06:05Z</time>
      </trkpt>
      <trkpt lat="47.12771" lon="5.48764">
        <ele>330</ele>
        <time>2017-10-11T09:06:12Z</time>
      </trkpt>
      <trkpt lat="47.1276" lon="5.48765">
        <ele>329</ele>
        <time>2017-10-11T09:06:23Z</time>
      </trkpt>
      <trkpt lat="47.12742" lon="5.48776">
        <ele>330</ele>
        <time>2017-10-11T09:06:40Z</time>
      </trkpt>
      <trkpt lat="47.12722" lon="5.48774">
        <ele>331</ele>
        <time>2017-10-11T09:06:56Z</time>
      </trkpt>
      <trkpt lat="47.12712" lon="5.48775">
        <ele>330</ele>
        <time>2017-10-11T09:07:03Z</time>
      </trkpt>
      <trkpt lat="47.12703" lon="5.48778">
        <ele>330</ele>
        <time>2017-10-11T09:07:11Z</time>
      </trkpt>
      <trkpt lat="47.12685" lon="5.48782">
        <ele>331</ele>
        <time>2017-10-11T09:07:26Z</time>
      </trkpt>
      <trkpt lat="47.12675" lon="5.48782">
        <ele>330</ele>
        <time>2017-10-11T09:07:32Z</time>
      </trkpt>
      <trkpt lat="47.12666" lon="5.48784">
        <ele>330</ele>
        <time>2017-10-11T09:07:40Z</time>
      </trkpt>
      <trkpt lat="47.12657" lon="5.48789">
        <ele>329</ele>
        <time>2017-10-11T09:07:48Z</time>
      </trkpt>
      <trkpt lat="47.12648" lon="5.48788">
        <ele>328</ele>
        <time>2017-10-11T09:07:56Z</time>
      </trkpt>
      <trkpt lat="47.12638" lon="5.48785">
        <ele>328</ele>
        <time>2017-10-11T09:08:03Z</time>
      </trkpt>
      <trkpt lat="47.12629" lon="5.48788">
        <ele>328</ele>
        <time>2017-10-11T09:08:11Z</time>
      </trkpt>
      <trkpt lat="47.12618" lon="5.48789">
        <ele>330</ele>
        <time>2017-10-11T09:08:23Z</time>
      </trkpt>
      <trkpt lat="47.126" lon="5.48793">
        <ele>332</ele>
        <time>2017-10-11T09:08:37Z</time>
      </trkpt>
      <trkpt lat="47.12589" lon="5.48792">
        <ele>332</ele>
        <time>2017-10-11T09:08:45Z</time>
      </trkpt>
      <trkpt lat="47.1258" lon="5.48796">
        <ele>333</ele>
        <time>2017-10-11T09:08:55Z</time>
      </trkpt>
      <trkpt lat="47.12571" lon="5.48799">
        <ele>333</ele>
        <time>2017-10-11T09:09:02Z</time>
      </trkpt>
      <trkpt lat="47.12561" lon="5.48799">
        <ele>333</ele>
        <time>2017-10-11T09:09:08Z</time>
      </trkpt>
      <trkpt lat="47.12551" lon="5.48803">
        <ele>333</ele>
        <time>2017-10-11T09:09:16Z</time>
      </trkpt>
      <trkpt lat="47.12532" lon="5.48808">
        <ele>332</ele>
        <time>2017-10-11T09:09:35Z</time>
      </trkpt>
      <trkpt lat="47.12523" lon="5.48806">
        <ele>331</ele>
        <time>2017-10-11T09:09:44Z</time>
      </trkpt>
      <trkpt lat="47.12514" lon="5.4881">
        <ele>330</ele>
        <time>2017-10-11T09:09:53Z</time>
      </trkpt>
      <trkpt lat="47.12494" lon="5.4881">
        <ele>329</ele>
        <time>2017-10-11T09:10:08Z</time>
      </trkpt>
      <trkpt lat="47.12485" lon="5.48811">
        <ele>329</ele>
        <time>2017-10-11T09:10:17Z</time>
      </trkpt>
      <trkpt lat="47.12477" lon="5.48815">
        <ele>330</ele>
        <time>2017-10-11T09:10:24Z</time>
      </trkpt>
      <trkpt lat="47.12468" lon="5.48819">
        <ele>331</ele>
        <time>2017-10-11T09:10:34Z</time>
      </trkpt>
      <trkpt lat="47.12458" lon="5.48822">
        <ele>332</ele>
        <time>2017-10-11T09:10:43Z</time>
      </trkpt>
      <trkpt lat="47.12449" lon="5.48821">
        <ele>332</ele>
        <time>2017-10-11T09:10:50Z</time>
      </trkpt>
      <trkpt lat="47.1244" lon="5.48823">
        <ele>332</ele>
        <time>2017-10-11T09:10:59Z</time>
      </trkpt>
      <trkpt lat="47.12431" lon="5.48827">
        <ele>331</ele>
        <time>2017-10-11T09:11:08Z</time>
      </trkpt>
      <trkpt lat="47.12422" lon="5.48824">
        <ele>331</ele>
        <time>2017-10-11T09:11:17Z</time>
      </trkpt>
      <trkpt lat="47.12412" lon="5.48826">
        <ele>331</ele>
        <time>2017-10-11T09:11:24Z</time>
      </trkpt>
      <trkpt lat="47.12403" lon="5.48831">
        <ele>331</ele>
        <time>2017-10-11T09:11:33Z</time>
      </trkpt>
      <trkpt lat="47.12394" lon="5.48835">
        <ele>331</ele>
        <time>2017-10-11T09:11:42Z</time>
      </trkpt>
      <trkpt lat="47.12375" lon="5.48834">
        <ele>328</ele>
        <time>2017-10-11T09:11:59Z</time>
      </trkpt>
      <trkpt lat="47.12357" lon="5.48844">
        <ele>325</ele>
        <time>2017-10-11T09:12:23Z</time>
      </trkpt>
      <trkpt lat="47.12341" lon="5.48855">
        <ele>324</ele>
        <time>2017-10-11T09:12:43Z</time>
      </trkpt>
      <trkpt lat="47.12332" lon="5.48855">
        <ele>325</ele>
        <time>2017-10-11T09:12:56Z</time>
      </trkpt>
      <trkpt lat="47.12325" lon="5.4886">
        <ele>324</ele>
        <time>2017-10-11T09:13:05Z</time>
      </trkpt>
      <trkpt lat="47.12322" lon="5.48866">
        <ele>323</ele>
        <time>2017-10-11T09:13:14Z</time>
      </trkpt>
      <trkpt lat="47.12316" lon="5.48868">
        <ele>321</ele>
        <time>2017-10-11T09:14:00Z</time>
      </trkpt>
      <trkpt lat="47.12317" lon="5.48856">
        <ele>320</ele>
        <time>2017-10-11T09:15:30Z</time>
      </trkpt>
      <trkpt lat="47.12315" lon="5.48849">
        <ele>318</ele>
        <time>2017-10-11T09:15:35Z</time>
      </trkpt>
      <trkpt lat="47.12313" lon="5.48842">
        <ele>318</ele>
        <time>2017-10-11T09:15:40Z</time>
      </trkpt>
      <trkpt lat="47.12312" lon="5.48835">
        <ele>318</ele>
        <time>2017-10-11T09:15:48Z</time>
      </trkpt>
      <trkpt lat="47.12312" lon="5.48828">
        <ele>317</ele>
        <time>2017-10-11T09:15:54Z</time>
      </trkpt>
      <trkpt lat="47.12309" lon="5.48815">
        <ele>317</ele>
        <time>2017-10-11T09:16:04Z</time>
      </trkpt>
      <trkpt lat="47.12303" lon="5.48805">
        <ele>317</ele>
        <time>2017-10-11T09:16:11Z</time>
      </trkpt>
      <trkpt lat="47.12299" lon="5.48802">
        <ele>317</ele>
        <time>2017-10-11T09:16:15Z</time>
      </trkpt>
      <trkpt lat="47.12293" lon="5.488">
        <ele>317</ele>
        <time>2017-10-11T09:16:20Z</time>
      </trkpt>
      <trkpt lat="47.12276" lon="5.48779">
        <ele>320</ele>
        <time>2017-10-11T09:16:36Z</time>
      </trkpt>
      <trkpt lat="47.1227" lon="5.48769">
        <ele>320</ele>
        <time>2017-10-11T09:16:44Z</time>
      </trkpt>
      <trkpt lat="47.12265" lon="5.48765">
        <ele>320</ele>
        <time>2017-10-11T09:16:49Z</time>
      </trkpt>
      <trkpt lat="47.12253" lon="5.48751">
        <ele>320</ele>
        <time>2017-10-11T09:17:00Z</time>
      </trkpt>
      <trkpt lat="47.12243" lon="5.48747">
        <ele>319</ele>
        <time>2017-10-11T09:17:09Z</time>
      </trkpt>
      <trkpt lat="47.12229" lon="5.48743">
        <ele>320</ele>
        <time>2017-10-11T09:17:21Z</time>
      </trkpt>
      <trkpt lat="47.12209" lon="5.48744">
        <ele>323</ele>
        <time>2017-10-11T09:17:38Z</time>
      </trkpt>
      <trkpt lat="47.122" lon="5.48748">
        <ele>323</ele>
        <time>2017-10-11T09:17:45Z</time>
      </trkpt>
      <trkpt lat="47.12171" lon="5.48756">
        <ele>324</ele>
        <time>2017-10-11T09:18:10Z</time>
      </trkpt>
      <trkpt lat="47.12162" lon="5.48762">
        <ele>324</ele>
        <time>2017-10-11T09:18:17Z</time>
      </trkpt>
      <trkpt lat="47.12154" lon="5.48764">
        <ele>324</ele>
        <time>2017-10-11T09:18:25Z</time>
      </trkpt>
      <trkpt lat="47.12149" lon="5.48765">
        <ele>324</ele>
        <time>2017-10-11T09:18:29Z</time>
      </trkpt>
      <trkpt lat="47.12139" lon="5.48769">
        <ele>326</ele>
        <time>2017-10-11T09:18:37Z</time>
      </trkpt>
      <trkpt lat="47.12135" lon="5.4877">
        <ele>326</ele>
        <time>2017-10-11T09:18:41Z</time>
      </trkpt>
      <trkpt lat="47.12114" lon="5.48771">
        <ele>326</ele>
        <time>2017-10-11T09:18:57Z</time>
      </trkpt>
      <trkpt lat="47.12095" lon="5.48772">
        <ele>327</ele>
        <time>2017-10-11T09:19:13Z</time>
      </trkpt>
      <trkpt lat="47.1209" lon="5.48774">
        <ele>327</ele>
        <time>2017-10-11T09:19:18Z</time>
      </trkpt>
      <trkpt lat="47.1207" lon="5.48777">
        <ele>325</ele>
        <time>2017-10-11T09:19:35Z</time>
      </trkpt>
      <trkpt lat="47.12065" lon="5.48777">
        <ele>325</ele>
        <time>2017-10-11T09:19:39Z</time>
      </trkpt>
      <trkpt lat="47.1206" lon="5.48776">
        <ele>325</ele>
        <time>2017-10-11T09:19:44Z</time>
      </trkpt>
      <trkpt lat="47.1204" lon="5.48773">
        <ele>323</ele>
        <time>2017-10-11T09:20:01Z</time>
      </trkpt>
      <trkpt lat="47.12019" lon="5.4877">
        <ele>323</ele>
        <time>2017-10-11T09:20:18Z</time>
      </trkpt>
      <trkpt lat="47.12009" lon="5.4877">
        <ele>324</ele>
        <time>2017-10-11T09:20:26Z</time>
      </trkpt>
      <trkpt lat="47.11994" lon="5.48768">
        <ele>323</ele>
        <time>2017-10-11T09:20:39Z</time>
      </trkpt>
      <trkpt lat="47.11989" lon="5.48767">
        <ele>322</ele>
        <time>2017-10-11T09:20:43Z</time>
      </trkpt>
      <trkpt lat="47.11974" lon="5.48764">
        <ele>322</ele>
        <time>2017-10-11T09:20:55Z</time>
      </trkpt>
      <trkpt lat="47.1196" lon="5.48762">
        <ele>320</ele>
        <time>2017-10-11T09:21:07Z</time>
      </trkpt>
      <trkpt lat="47.11956" lon="5.48761">
        <ele>320</ele>
        <time>2017-10-11T09:21:11Z</time>
      </trkpt>
      <trkpt lat="47.11951" lon="5.4876">
        <ele>319</ele>
        <time>2017-10-11T09:21:15Z</time>
      </trkpt>
      <trkpt lat="47.11936" lon="5.48754">
        <ele>319</ele>
        <time>2017-10-11T09:21:27Z</time>
      </trkpt>
      <trkpt lat="47.11931" lon="5.48753">
        <ele>318</ele>
        <time>2017-10-11T09:21:31Z</time>
      </trkpt>
      <trkpt lat="47.11922" lon="5.48753">
        <ele>317</ele>
        <time>2017-10-11T09:21:39Z</time>
      </trkpt>
      <trkpt lat="47.11908" lon="5.48752">
        <ele>317</ele>
        <time>2017-10-11T09:21:51Z</time>
      </trkpt>
      <trkpt lat="47.1187" lon="5.4875">
        <ele>314</ele>
        <time>2017-10-11T09:22:23Z</time>
      </trkpt>
      <trkpt lat="47.11855" lon="5.48749">
        <ele>313</ele>
        <time>2017-10-11T09:22:35Z</time>
      </trkpt>
      <trkpt lat="47.11849" lon="5.48752">
        <ele>313</ele>
        <time>2017-10-11T09:22:46Z</time>
      </trkpt>
      <trkpt lat="47.11844" lon="5.4875">
        <ele>314</ele>
        <time>2017-10-11T09:22:50Z</time>
      </trkpt>
      <trkpt lat="47.11824" lon="5.48744">
        <ele>313</ele>
        <time>2017-10-11T09:23:06Z</time>
      </trkpt>
      <trkpt lat="47.11819" lon="5.48742">
        <ele>312</ele>
        <time>2017-10-11T09:23:10Z</time>
      </trkpt>
      <trkpt lat="47.11815" lon="5.48738">
        <ele>312</ele>
        <time>2017-10-11T09:23:14Z</time>
      </trkpt>
      <trkpt lat="47.118" lon="5.48733">
        <ele>309</ele>
        <time>2017-10-11T09:23:27Z</time>
      </trkpt>
      <trkpt lat="47.11795" lon="5.4873">
        <ele>309</ele>
        <time>2017-10-11T09:23:31Z</time>
      </trkpt>
      <trkpt lat="47.11776" lon="5.48719">
        <ele>310</ele>
        <time>2017-10-11T09:23:46Z</time>
      </trkpt>
      <trkpt lat="47.1176" lon="5.48713">
        <ele>311</ele>
        <time>2017-10-11T09:24:02Z</time>
      </trkpt>
      <trkpt lat="47.11744" lon="5.487">
        <ele>312</ele>
        <time>2017-10-11T09:24:13Z</time>
      </trkpt>
      <trkpt lat="47.11725" lon="5.48693">
        <ele>312</ele>
        <time>2017-10-11T09:24:31Z</time>
      </trkpt>
      <trkpt lat="47.11708" lon="5.4868">
        <ele>313</ele>
        <time>2017-10-11T09:24:47Z</time>
      </trkpt>
      <trkpt lat="47.11698" lon="5.48678">
        <ele>315</ele>
        <time>2017-10-11T09:24:56Z</time>
      </trkpt>
      <trkpt lat="47.11681" lon="5.48664">
        <ele>317</ele>
        <time>2017-10-11T09:25:11Z</time>
      </trkpt>
      <trkpt lat="47.11674" lon="5.48655">
        <ele>318</ele>
        <time>2017-10-11T09:25:19Z</time>
      </trkpt>
      <trkpt lat="47.11667" lon="5.48647">
        <ele>318</ele>
        <time>2017-10-11T09:25:25Z</time>
      </trkpt>
      <trkpt lat="47.11656" lon="5.48644">
        <ele>318</ele>
        <time>2017-10-11T09:25:34Z</time>
      </trkpt>
      <trkpt lat="47.11647" lon="5.48641">
        <ele>318</ele>
        <time>2017-10-11T09:25:42Z</time>
      </trkpt>
      <trkpt lat="47.1163" lon="5.48628">
        <ele>318</ele>
        <time>2017-10-11T09:25:58Z</time>
      </trkpt>
      <trkpt lat="47.11619" lon="5.48613">
        <ele>318</ele>
        <time>2017-10-11T09:26:12Z</time>
      </trkpt>
      <trkpt lat="47.11606" lon="5.48601">
        <ele>319</ele>
        <time>2017-10-11T09:26:25Z</time>
      </trkpt>
      <trkpt lat="47.11596" lon="5.48596">
        <ele>321</ele>
        <time>2017-10-11T09:26:32Z</time>
      </trkpt>
      <trkpt lat="47.11586" lon="5.48594">
        <ele>322</ele>
        <time>2017-10-11T09:26:40Z</time>
      </trkpt>
      <trkpt lat="47.11581" lon="5.48591">
        <ele>322</ele>
        <time>2017-10-11T09:26:44Z</time>
      </trkpt>
      <trkpt lat="47.11577" lon="5.48589">
        <ele>323</ele>
        <time>2017-10-11T09:26:48Z</time>
      </trkpt>
      <trkpt lat="47.11572" lon="5.48591">
        <ele>323</ele>
        <time>2017-10-11T09:26:53Z</time>
      </trkpt>
      <trkpt lat="47.11568" lon="5.48589">
        <ele>323</ele>
        <time>2017-10-11T09:26:59Z</time>
      </trkpt>
      <trkpt lat="47.11563" lon="5.4859">
        <ele>323</ele>
        <time>2017-10-11T09:27:03Z</time>
      </trkpt>
      <trkpt lat="47.11546" lon="5.48642">
        <ele>324</ele>
        <time>2017-10-11T09:27:39Z</time>
      </trkpt>
      <trkpt lat="47.11537" lon="5.48643">
        <ele>324</ele>
        <time>2017-10-11T09:27:51Z</time>
      </trkpt>
      <trkpt lat="47.11529" lon="5.48634">
        <ele>323</ele>
        <time>2017-10-11T09:28:05Z</time>
      </trkpt>
      <trkpt lat="47.11521" lon="5.48641">
        <ele>323</ele>
        <time>2017-10-11T09:28:12Z</time>
      </trkpt>
      <trkpt lat="47.11519" lon="5.48647">
        <ele>322</ele>
        <time>2017-10-11T09:28:16Z</time>
      </trkpt>
      <trkpt lat="47.11515" lon="5.48651">
        <ele>322</ele>
        <time>2017-10-11T09:28:20Z</time>
      </trkpt>
      <trkpt lat="47.1151" lon="5.48653">
        <ele>322</ele>
        <time>2017-10-11T09:28:24Z</time>
      </trkpt>
      <trkpt lat="47.11505" lon="5.48655">
        <ele>322</ele>
        <time>2017-10-11T09:28:29Z</time>
      </trkpt>
      <trkpt lat="47.11501" lon="5.48659">
        <ele>322</ele>
        <time>2017-10-11T09:28:33Z</time>
      </trkpt>
      <trkpt lat="47.11491" lon="5.48665">
        <ele>321</ele>
        <time>2017-10-11T09:28:43Z</time>
      </trkpt>
      <trkpt lat="47.11488" lon="5.4867">
        <ele>320</ele>
        <time>2017-10-11T09:28:49Z</time>
      </trkpt>
      <trkpt lat="47.11488" lon="5.48677">
        <ele>319</ele>
        <time>2017-10-11T09:28:54Z</time>
      </trkpt>
      <trkpt lat="47.11483" lon="5.48676">
        <ele>319</ele>
        <time>2017-10-11T09:28:59Z</time>
      </trkpt>
      <trkpt lat="47.11479" lon="5.48682">
        <ele>317</ele>
        <time>2017-10-11T09:29:04Z</time>
      </trkpt>
      <trkpt lat="47.11474" lon="5.48695">
        <ele>315</ele>
        <time>2017-10-11T09:29:14Z</time>
      </trkpt>
      <trkpt lat="47.11473" lon="5.48703">
        <ele>315</ele>
        <time>2017-10-11T09:29:20Z</time>
      </trkpt>
      <trkpt lat="47.11474" lon="5.4871">
        <ele>314</ele>
        <time>2017-10-11T09:29:28Z</time>
      </trkpt>
      <trkpt lat="47.11473" lon="5.48718">
        <ele>311</ele>
        <time>2017-10-11T09:30:10Z</time>
      </trkpt>
      <trkpt lat="47.11466" lon="5.48737">
        <ele>309</ele>
        <time>2017-10-11T09:30:25Z</time>
      </trkpt>
      <trkpt lat="47.11461" lon="5.48736">
        <ele>308</ele>
        <time>2017-10-11T09:30:29Z</time>
      </trkpt>
      <trkpt lat="47.11452" lon="5.48727">
        <ele>307</ele>
        <time>2017-10-11T09:30:37Z</time>
      </trkpt>
      <trkpt lat="47.11447" lon="5.48722">
        <ele>307</ele>
        <time>2017-10-11T09:30:41Z</time>
      </trkpt>
      <trkpt lat="47.11439" lon="5.48717">
        <ele>307</ele>
        <time>2017-10-11T09:30:49Z</time>
      </trkpt>
      <trkpt lat="47.11434" lon="5.48714">
        <ele>307</ele>
        <time>2017-10-11T09:30:54Z</time>
      </trkpt>
      <trkpt lat="47.11423" lon="5.48701">
        <ele>308</ele>
        <time>2017-10-11T09:31:06Z</time>
      </trkpt>
      <trkpt lat="47.11414" lon="5.48696">
        <ele>308</ele>
        <time>2017-10-11T09:31:16Z</time>
      </trkpt>
      <trkpt lat="47.1141" lon="5.48684">
        <ele>308</ele>
        <time>2017-10-11T09:31:27Z</time>
      </trkpt>
      <trkpt lat="47.11395" lon="5.48669">
        <ele>307</ele>
        <time>2017-10-11T09:31:40Z</time>
      </trkpt>
      <trkpt lat="47.11381" lon="5.48648">
        <ele>305</ele>
        <time>2017-10-11T09:31:55Z</time>
      </trkpt>
      <trkpt lat="47.11372" lon="5.48642">
        <ele>305</ele>
        <time>2017-10-11T09:32:01Z</time>
      </trkpt>
      <trkpt lat="47.11365" lon="5.48634">
        <ele>304</ele>
        <time>2017-10-11T09:32:08Z</time>
      </trkpt>
      <trkpt lat="47.11362" lon="5.4864">
        <ele>303</ele>
        <time>2017-10-11T09:32:13Z</time>
      </trkpt>
      <trkpt lat="47.11361" lon="5.48655">
        <ele>303</ele>
        <time>2017-10-11T09:32:21Z</time>
      </trkpt>
      <trkpt lat="47.11361" lon="5.48662">
        <ele>303</ele>
        <time>2017-10-11T09:32:25Z</time>
      </trkpt>
      <trkpt lat="47.11357" lon="5.48676">
        <ele>301</ele>
        <time>2017-10-11T09:32:34Z</time>
      </trkpt>
      <trkpt lat="47.11354" lon="5.48681">
        <ele>300</ele>
        <time>2017-10-11T09:32:38Z</time>
      </trkpt>
      <trkpt lat="47.11349" lon="5.48693">
        <ele>300</ele>
        <time>2017-10-11T09:32:46Z</time>
      </trkpt>
      <trkpt lat="47.11348" lon="5.48701">
        <ele>300</ele>
        <time>2017-10-11T09:32:51Z</time>
      </trkpt>
      <trkpt lat="47.1135" lon="5.48708">
        <ele>300</ele>
        <time>2017-10-11T09:32:55Z</time>
      </trkpt>
      <trkpt lat="47.11354" lon="5.48712">
        <ele>300</ele>
        <time>2017-10-11T09:32:59Z</time>
      </trkpt>
      <trkpt lat="47.11358" lon="5.48716">
        <ele>299</ele>
        <time>2017-10-11T09:33:04Z</time>
      </trkpt>
      <trkpt lat="47.1136" lon="5.48723">
        <ele>298</ele>
        <time>2017-10-11T09:33:10Z</time>
      </trkpt>
      <trkpt lat="47.11356" lon="5.48737">
        <ele>300</ele>
        <time>2017-10-11T09:33:20Z</time>
      </trkpt>
      <trkpt lat="47.1135" lon="5.48748">
        <ele>299</ele>
        <time>2017-10-11T09:33:37Z</time>
      </trkpt>
      <trkpt lat="47.11348" lon="5.48755">
        <ele>297</ele>
        <time>2017-10-11T09:33:41Z</time>
      </trkpt>
      <trkpt lat="47.11342" lon="5.48768">
        <ele>296</ele>
        <time>2017-10-11T09:33:50Z</time>
      </trkpt>
      <trkpt lat="47.11339" lon="5.48774">
        <ele>296</ele>
        <time>2017-10-11T09:33:54Z</time>
      </trkpt>
      <trkpt lat="47.11337" lon="5.4878">
        <ele>296</ele>
        <time>2017-10-11T09:33:59Z</time>
      </trkpt>
      <trkpt lat="47.11336" lon="5.48787">
        <ele>295</ele>
        <time>2017-10-11T09:34:04Z</time>
      </trkpt>
      <trkpt lat="47.11337" lon="5.48808">
        <ele>292</ele>
        <time>2017-10-11T09:34:22Z</time>
      </trkpt>
      <trkpt lat="47.11335" lon="5.48822">
        <ele>291</ele>
        <time>2017-10-11T09:34:33Z</time>
      </trkpt>
      <trkpt lat="47.11332" lon="5.48836">
        <ele>290</ele>
        <time>2017-10-11T09:34:45Z</time>
      </trkpt>
      <trkpt lat="47.11332" lon="5.48844">
        <ele>289</ele>
        <time>2017-10-11T09:34:51Z</time>
      </trkpt>
      <trkpt lat="47.11331" lon="5.48851">
        <ele>289</ele>
        <time>2017-10-11T09:34:56Z</time>
      </trkpt>
      <trkpt lat="47.11332" lon="5.48858">
        <ele>289</ele>
        <time>2017-10-11T09:35:01Z</time>
      </trkpt>
      <trkpt lat="47.11334" lon="5.489">
        <ele>285</ele>
        <time>2017-10-11T09:35:32Z</time>
      </trkpt>
      <trkpt lat="47.11335" lon="5.48906">
        <ele>284</ele>
        <time>2017-10-11T09:35:37Z</time>
      </trkpt>
      <trkpt lat="47.11335" lon="5.48914">
        <ele>283</ele>
        <time>2017-10-11T09:35:43Z</time>
      </trkpt>
      <trkpt lat="47.11336" lon="5.48929">
        <ele>282</ele>
        <time>2017-10-11T09:35:58Z</time>
      </trkpt>
      <trkpt lat="47.11338" lon="5.48935">
        <ele>281</ele>
        <time>2017-10-11T09:36:03Z</time>
      </trkpt>
      <trkpt lat="47.11339" lon="5.48944">
        <ele>281</ele>
        <time>2017-10-11T09:36:09Z</time>
      </trkpt>
      <trkpt lat="47.11336" lon="5.4895">
        <ele>281</ele>
        <time>2017-10-11T09:36:13Z</time>
      </trkpt>
      <trkpt lat="47.11333" lon="5.48956">
        <ele>281</ele>
        <time>2017-10-11T09:36:18Z</time>
      </trkpt>
      <trkpt lat="47.11331" lon="5.48962">
        <ele>280</ele>
        <time>2017-10-11T09:36:24Z</time>
      </trkpt>
      <trkpt lat="47.11328" lon="5.48969">
        <ele>280</ele>
        <time>2017-10-11T09:36:30Z</time>
      </trkpt>
      <trkpt lat="47.11325" lon="5.48975">
        <ele>279</ele>
        <time>2017-10-11T09:36:35Z</time>
      </trkpt>
      <trkpt lat="47.11321" lon="5.48986">
        <ele>278</ele>
        <time>2017-10-11T09:36:41Z</time>
      </trkpt>
      <trkpt lat="47.11323" lon="5.48994">
        <ele>278</ele>
        <time>2017-10-11T09:36:46Z</time>
      </trkpt>
      <trkpt lat="47.11329" lon="5.49005">
        <ele>279</ele>
        <time>2017-10-11T09:36:54Z</time>
      </trkpt>
      <trkpt lat="47.11335" lon="5.49017">
        <ele>279</ele>
        <time>2017-10-11T09:37:03Z</time>
      </trkpt>
      <trkpt lat="47.11342" lon="5.49028">
        <ele>279</ele>
        <time>2017-10-11T09:37:11Z</time>
      </trkpt>
      <trkpt lat="47.11346" lon="5.49033">
        <ele>280</ele>
        <time>2017-10-11T09:37:15Z</time>
      </trkpt>
      <trkpt lat="47.11357" lon="5.49046">
        <ele>280</ele>
        <time>2017-10-11T09:37:27Z</time>
      </trkpt>
      <trkpt lat="47.11366" lon="5.49054">
        <ele>280</ele>
        <time>2017-10-11T09:37:35Z</time>
      </trkpt>
      <trkpt lat="47.11388" lon="5.4907">
        <ele>278</ele>
        <time>2017-10-11T09:37:56Z</time>
      </trkpt>
      <trkpt lat="47.11393" lon="5.49075">
        <ele>277</ele>
        <time>2017-10-11T09:38:04Z</time>
      </trkpt>
      <trkpt lat="47.11397" lon="5.49079">
        <ele>277</ele>
        <time>2017-10-11T09:38:08Z</time>
      </trkpt>
      <trkpt lat="47.11402" lon="5.49083">
        <ele>277</ele>
        <time>2017-10-11T09:38:12Z</time>
      </trkpt>
      <trkpt lat="47.11405" lon="5.49112">
        <ele>276</ele>
        <time>2017-10-11T09:38:28Z</time>
      </trkpt>
      <trkpt lat="47.11405" lon="5.4912">
        <ele>275</ele>
        <time>2017-10-11T09:38:33Z</time>
      </trkpt>
      <trkpt lat="47.11402" lon="5.49127">
        <ele>275</ele>
        <time>2017-10-11T09:38:37Z</time>
      </trkpt>
      <trkpt lat="47.11398" lon="5.49133">
        <ele>274</ele>
        <time>2017-10-11T09:38:41Z</time>
      </trkpt>
      <trkpt lat="47.11384" lon="5.49144">
        <ele>272</ele>
        <time>2017-10-11T09:38:52Z</time>
      </trkpt>
      <trkpt lat="47.11371" lon="5.49168">
        <ele>268</ele>
        <time>2017-10-11T09:39:07Z</time>
      </trkpt>
      <trkpt lat="47.11367" lon="5.49191">
        <ele>268</ele>
        <time>2017-10-11T09:39:18Z</time>
      </trkpt>
      <trkpt lat="47.11374" lon="5.49235">
        <ele>267</ele>
        <time>2017-10-11T09:39:39Z</time>
      </trkpt>
      <trkpt lat="47.11386" lon="5.49268">
        <ele>267</ele>
        <time>2017-10-11T09:39:57Z</time>
      </trkpt>
      <trkpt lat="47.11389" lon="5.49274">
        <ele>267</ele>
        <time>2017-10-11T09:40:01Z</time>
      </trkpt>
      <trkpt lat="47.1139" lon="5.4928">
        <ele>267</ele>
        <time>2017-10-11T09:40:05Z</time>
      </trkpt>
      <trkpt lat="47.11392" lon="5.49287">
        <ele>267</ele>
        <time>2017-10-11T09:40:09Z</time>
      </trkpt>
      <trkpt lat="47.11394" lon="5.49301">
        <ele>267</ele>
        <time>2017-10-11T09:40:17Z</time>
      </trkpt>
      <trkpt lat="47.11392" lon="5.49325">
        <ele>266</ele>
        <time>2017-10-11T09:40:28Z</time>
      </trkpt>
      <trkpt lat="47.11391" lon="5.49339">
        <ele>265</ele>
        <time>2017-10-11T09:40:34Z</time>
      </trkpt>
      <trkpt lat="47.1139" lon="5.49354">
        <ele>264</ele>
        <time>2017-10-11T09:40:44Z</time>
      </trkpt>
      <trkpt lat="47.11389" lon="5.49361">
        <ele>263</ele>
        <time>2017-10-11T09:40:48Z</time>
      </trkpt>
      <trkpt lat="47.11387" lon="5.49378">
        <ele>262</ele>
        <time>2017-10-11T09:40:56Z</time>
      </trkpt>
      <trkpt lat="47.11387" lon="5.494">
        <ele>260</ele>
        <time>2017-10-11T09:41:09Z</time>
      </trkpt>
      <trkpt lat="47.11383" lon="5.49462">
        <ele>260</ele>
        <time>2017-10-11T09:41:40Z</time>
      </trkpt>
      <trkpt lat="47.1138" lon="5.49493">
        <ele>259</ele>
        <time>2017-10-11T09:41:56Z</time>
      </trkpt>
      <trkpt lat="47.11382" lon="5.49501">
        <ele>259</ele>
        <time>2017-10-11T09:42:00Z</time>
      </trkpt>
      <trkpt lat="47.1139" lon="5.4951">
        <ele>259</ele>
        <time>2017-10-11T09:42:08Z</time>
      </trkpt>
      <trkpt lat="47.11398" lon="5.49521">
        <ele>258</ele>
        <time>2017-10-11T09:42:16Z</time>
      </trkpt>
      <trkpt lat="47.11402" lon="5.49535">
        <ele>257</ele>
        <time>2017-10-11T09:42:24Z</time>
      </trkpt>
      <trkpt lat="47.11405" lon="5.4954">
        <ele>256</ele>
        <time>2017-10-11T09:42:31Z</time>
      </trkpt>
      <trkpt lat="47.11409" lon="5.49555">
        <ele>256</ele>
        <time>2017-10-11T09:42:38Z</time>
      </trkpt>
      <trkpt lat="47.11412" lon="5.49577">
        <ele>256</ele>
        <time>2017-10-11T09:42:48Z</time>
      </trkpt>
      <trkpt lat="47.11415" lon="5.49591">
        <ele>257</ele>
        <time>2017-10-11T09:42:56Z</time>
      </trkpt>
      <trkpt lat="47.11418" lon="5.49597">
        <ele>257</ele>
        <time>2017-10-11T09:43:00Z</time>
      </trkpt>
      <trkpt lat="47.1142" lon="5.49603">
        <ele>257</ele>
        <time>2017-10-11T09:43:04Z</time>
      </trkpt>
      <trkpt lat="47.11424" lon="5.49608">
        <ele>256</ele>
        <time>2017-10-11T09:43:08Z</time>
      </trkpt>
      <trkpt lat="47.11428" lon="5.49613">
        <ele>255</ele>
        <time>2017-10-11T09:43:12Z</time>
      </trkpt>
      <trkpt lat="47.11438" lon="5.49616">
        <ele>255</ele>
        <time>2017-10-11T09:43:20Z</time>
      </trkpt>
      <trkpt lat="47.11442" lon="5.49621">
        <ele>254</ele>
        <time>2017-10-11T09:43:25Z</time>
      </trkpt>
      <trkpt lat="47.11445" lon="5.49627">
        <ele>254</ele>
        <time>2017-10-11T09:43:29Z</time>
      </trkpt>
      <trkpt lat="47.11453" lon="5.49636">
        <ele>254</ele>
        <time>2017-10-11T09:43:37Z</time>
      </trkpt>
      <trkpt lat="47.11457" lon="5.49637">
        <ele>254</ele>
        <time>2017-10-11T09:43:41Z</time>
      </trkpt>
      <trkpt lat="47.11461" lon="5.49641">
        <ele>253</ele>
        <time>2017-10-11T09:43:45Z</time>
      </trkpt>
      <trkpt lat="47.11465" lon="5.49648">
        <ele>254</ele>
        <time>2017-10-11T09:43:49Z</time>
      </trkpt>
      <trkpt lat="47.11467" lon="5.49656">
        <ele>255</ele>
        <time>2017-10-11T09:43:53Z</time>
      </trkpt>
      <trkpt lat="47.11469" lon="5.49663">
        <ele>255</ele>
        <time>2017-10-11T09:43:57Z</time>
      </trkpt>
      <trkpt lat="47.11472" lon="5.4967">
        <ele>255</ele>
        <time>2017-10-11T09:44:02Z</time>
      </trkpt>
      <trkpt lat="47.1147" lon="5.49689">
        <ele>254</ele>
        <time>2017-10-11T09:44:11Z</time>
      </trkpt>
      <trkpt lat="47.11459" lon="5.49729">
        <ele>251</ele>
        <time>2017-10-11T09:44:36Z</time>
      </trkpt>
      <trkpt lat="47.11454" lon="5.49742">
        <ele>251</ele>
        <time>2017-10-11T09:44:45Z</time>
      </trkpt>
      <trkpt lat="47.11445" lon="5.49759">
        <ele>250</ele>
        <time>2017-10-11T09:44:58Z</time>
      </trkpt>
      <trkpt lat="47.1144" lon="5.49772">
        <ele>250</ele>
        <time>2017-10-11T09:45:06Z</time>
      </trkpt>
      <trkpt lat="47.11429" lon="5.49799">
        <ele>248</ele>
        <time>2017-10-11T09:45:22Z</time>
      </trkpt>
      <trkpt lat="47.11426" lon="5.49814">
        <ele>249</ele>
        <time>2017-10-11T09:45:30Z</time>
      </trkpt>
      <trkpt lat="47.11416" lon="5.49842">
        <ele>247</ele>
        <time>2017-10-11T09:45:48Z</time>
      </trkpt>
      <trkpt lat="47.11409" lon="5.49854">
        <ele>247</ele>
        <time>2017-10-11T09:45:56Z</time>
      </trkpt>
      <trkpt lat="47.11405" lon="5.49859">
        <ele>248</ele>
        <time>2017-10-11T09:46:01Z</time>
      </trkpt>
      <trkpt lat="47.11401" lon="5.49862">
        <ele>248</ele>
        <time>2017-10-11T09:46:06Z</time>
      </trkpt>
      <trkpt lat="47.11396" lon="5.49862">
        <ele>249</ele>
        <time>2017-10-11T09:46:12Z</time>
      </trkpt>
      <trkpt lat="47.1139" lon="5.49865">
        <ele>251</ele>
        <time>2017-10-11T09:46:17Z</time>
      </trkpt>
      <trkpt lat="47.11385" lon="5.49867">
        <ele>252</ele>
        <time>2017-10-11T09:46:21Z</time>
      </trkpt>
      <trkpt lat="47.11377" lon="5.49874">
        <ele>252</ele>
        <time>2017-10-11T09:46:27Z</time>
      </trkpt>
      <trkpt lat="47.11348" lon="5.49887">
        <ele>251</ele>
        <time>2017-10-11T09:46:52Z</time>
      </trkpt>
      <trkpt lat="47.11329" lon="5.49894">
        <ele>249</ele>
        <time>2017-10-11T09:47:10Z</time>
      </trkpt>
      <trkpt lat="47.11316" lon="5.49897">
        <ele>249</ele>
        <time>2017-10-11T09:48:31Z</time>
      </trkpt>
      <trkpt lat="47.11312" lon="5.49899">
        <ele>249</ele>
        <time>2017-10-11T09:48:35Z</time>
      </trkpt>
      <trkpt lat="47.11309" lon="5.49904">
        <ele>249</ele>
        <time>2017-10-11T09:48:39Z</time>
      </trkpt>
      <trkpt lat="47.11304" lon="5.49906">
        <ele>250</ele>
        <time>2017-10-11T09:48:44Z</time>
      </trkpt>
      <trkpt lat="47.113" lon="5.49909">
        <ele>250</ele>
        <time>2017-10-11T09:48:52Z</time>
      </trkpt>
    </trkseg>
  </trk>
</gpx>